Flight Track Log - Related Links

Times and Time Zones

All times are in EDT time to prevent confusion due to time zone crossing. See the DAL268 flight status page for this flight to view local times or setup timezone preferences in your user account.

Time Position Orientation Groundspeed Altitude Reporting Facility
EDT Latitude Longitude Course Direction KTS MPH feet Rate Location/Type
Fri 10:09:31 PM 40.6340 -73.7850 323° Northwest 130 150  Level FlightAware ADS-B
Fri 10:09:53 PM 40.6430 -73.8050 301° West 185 213 200 1,059 Climbing FlightAware ADS-B
Fri 10:10:05 PM 40.6480 -73.8180 297° West 187 215 600 1,667 Climbing FlightAware ADS-B
Fri 10:10:11 PM 40.6480 -73.8240 270° West 191 220 700 1,886 Climbing FlightAware ADS-B
Fri 10:10:40 PM 40.6380 -73.8550 247° West 196 226 1,700 1,592 Climbing FlightAware ADS-B
Fri 10:11:00 PM 40.6250 -73.8750 229° Southwest 223 257 2,000 1,167 Climbing FlightAware ADS-B
Fri 10:11:16 PM 40.6120 -73.8900 221° Southwest 243 280 2,400 1,250 Climbing FlightAware ADS-B
Fri 10:11:24 PM 40.6030 -73.8950 203° Southwest 255 293 2,500 500 Climbing FlightAware ADS-B
Fri 10:11:28 PM 40.5990 -73.8970 201° Southwest 260 299 2,500 1,091 Level FlightAware ADS-B
Fri 10:11:35 PM 40.5910 -73.8980 185° South 266 306 2,700 1,448 Climbing FlightAware ADS-B
Fri 10:11:57 PM 40.5620 -73.8880 165° South 294 338 3,200 1,688 Climbing FlightAware ADS-B
Fri 10:12:07 PM 40.5510 -73.8780 145° Southeast 299 344 3,600 2,182 Climbing FlightAware ADS-B
Fri 10:12:19 PM 40.5390 -73.8620 135° Southeast 308 354 4,000 2,100 Climbing FlightAware ADS-B
Fri 10:12:27 PM 40.5330 -73.8490 121° Southeast 309 356 4,300 2,250 Climbing FlightAware ADS-B
Fri 10:12:35 PM 40.5300 -73.8340 105° East 310 357 4,600 2,500 Climbing FlightAware ADS-B
Fri 10:12:39 PM 40.5290 -73.8290 105° East 310 357 4,800 3,000 Climbing FlightAware ADS-B
Fri 10:12:47 PM 40.5290 -73.8120 90° East 309 356 5,200 2,400 Climbing FlightAware ADS-B
Fri 10:12:54 PM 40.5300 -73.8010 83° East 311 358 5,400 2,526 Climbing FlightAware ADS-B
Fri 10:13:06 PM 40.5360 -73.7770 72° East 310 357 6,000 2,571 Climbing FlightAware ADS-B
Fri 10:13:15 PM 40.5420 -73.7630 61° Northeast 309 356 6,300 2,471 Climbing FlightAware ADS-B
Fri 10:13:23 PM 40.5500 -73.7530 44° Northeast 308 354 6,700 2,786 Climbing FlightAware ADS-B
Fri 10:13:43 PM 40.5710 -73.7290 41° Northeast 307 353 7,600 2,684 Climbing FlightAware ADS-B
Fri 10:14:01 PM 40.5920 -73.7070 39° Northeast 308 354 8,400 2,455 Climbing FlightAware ADS-B
Fri 10:14:27 PM 40.6220 -73.6760 38° Northeast 314 361 9,400 2,069 Climbing FlightAware ADS-B
Fri 10:14:59 PM 40.6580 -73.6380 39° Northeast 327 376 10,400 1,364 Climbing FlightAware ADS-B
Fri 10:15:33 PM 40.7020 -73.5920 38° Northeast 363 418 10,900 938 Climbing FlightAware ADS-B
Fri 10:16:03 PM 40.7440 -73.5510 36° Northeast 388 447 11,400 1,143 Climbing FlightAware ADS-B
Fri 10:16:36 PM 40.7970 -73.5190 25° Northeast 410 472 12,100 1,629 Climbing FlightAware ADS-B
Fri 10:17:13 PM 40.8647 -73.4759 26° Northeast 426 490 13,300 2,137 Climbing FlightAware ADS-B (KSNC)
Fri 10:17:49 PM 40.9289 -73.4348 26° Northeast 428 493 14,700 2,160 Climbing FlightAware ADS-B (KSNC)
Fri 10:18:28 PM 40.9984 -73.3890 26° Northeast 436 502 16,000 1,913 Climbing FlightAware ADS-B (KSNC)
Fri 10:18:58 PM 41.0530 -73.3530 26° Northeast 441 507 16,900 2,000 Climbing FlightAware ADS-B
Fri 10:19:07 PM 41.0692 -73.3422 27° Northeast 442 509 17,300 1,862 Climbing FlightAware ADS-B (KSNC)
Fri 10:19:56 PM 41.1600 -73.2839 26° Northeast 454 522 18,700 1,244 Climbing FlightAware ADS-B (KSNC)
Fri 10:20:29 PM 41.2245 -73.2414 26° Northeast 466 536 19,000 831 Climbing FlightAware ADS-B (KSNC)
Fri 10:21:01 PM 41.2852 -73.2010 27° Northeast 460 529 19,600 1,385 Climbing FlightAware ADS-B (KSNC)
Fri 10:21:47 PM 41.3715 -73.1366 29° Northeast 475 547 20,800 1,500 Climbing FlightAware ADS-B (KSNC)
Fri 10:22:05 PM 41.3988 -73.0980 47° Northeast 483 556 21,200 1,320 Climbing FlightAware ADS-B (KSNC)
Fri 10:22:37 PM 41.4260 -73.0394 58° Northeast 494 568 21,900 1,429 Climbing FlightAware ADS-B (KSNC)
Fri 10:23:08 PM 41.4705 -72.9394 59° Northeast 499 574 22,700 1,452 Climbing FlightAware ADS-B (KSNC)
Fri 10:23:39 PM 41.5068 -72.8565 60° Northeast 503 579 23,400 1,377 Climbing FlightAware ADS-B (KSNC)
Fri 10:24:09 PM 41.5440 -72.7703 60° Northeast 506 582 24,100 1,273 Climbing FlightAware ADS-B (KSNC)
Fri 10:24:45 PM 41.5833 -72.6773 61° Northeast 515 593 24,800 1,164 Climbing FlightAware ADS-B (KSNC)
Fri 10:25:16 PM 41.6126 -72.5791 68° East 522 601 25,400 1,000 Climbing FlightAware ADS-B (KSNC)
Fri 10:26:03 PM 41.6545 -72.4366 68° East 532 612 26,100 911 Climbing FlightAware ADS-B (KSNC)
Fri 10:26:35 PM 41.6831 -72.3417 68° East 538 619 26,600 947 Climbing FlightAware ADS-B (KSNC)
Fri 10:27:19 PM 41.7265 -72.2027 67° East 546 628 27,300 1,040 Climbing FlightAware ADS-B (KSNC)
Fri 10:27:50 PM 41.7553 -72.1121 67° East 546 628 27,900 1,247 Climbing FlightAware ADS-B (KSNC)
Fri 10:28:36 PM 41.8024 -71.9631 67° East 545 627 28,900 1,241 Climbing FlightAware ADS-B (KSNC)
Fri 10:29:17 PM 41.8418 -71.8352 68° East 545 627 29,700 1,259 Climbing FlightAware ADS-B (KSNC)
Fri 10:29:57 PM 41.8790 -71.7170 67° East 541 623 30,600 1,358 Climbing FlightAware ADS-B
Fri 10:30:10 PM 41.8902 -71.6766 70° East 539 620 30,900 353 Climbing FlightAware ADS-B (KSNC)
Fri 10:31:05 PM 41.9410 -71.5030 68° East 534 615 31,000 67 Climbing FlightAware ADS-B
Fri 10:31:40 PM 41.9730 -71.3950 68° East 532 612 31,000  Level FlightAware ADS-B
Fri 10:32:19 PM 42.0046 -71.2849 69° East 531 611 31,000  Level FlightAware ADS-B (EPKK / KRK)
Fri 10:32:50 PM 42.0350 -71.1800 69° East 532 612 31,000  Level FlightAware ADS-B
Fri 10:33:18 PM 42.0609 -71.0909 69° East 533 613 31,000  Level FlightAware ADS-B (EPKK / KRK)
Fri 10:33:53 PM 42.0928 -70.9823 68° East 537 618 31,000  Level FlightAware ADS-B (EPKK / KRK)
Fri 10:34:28 PM 42.1234 -70.8761 69° East 541 623 31,000  Level FlightAware ADS-B (EPKK / KRK)
Fri 10:35:01 PM 42.1530 -70.7723 69° East 543 625 31,000  Level FlightAware ADS-B (EPKK / KRK)
Fri 10:35:36 PM 42.1841 -70.6616 69° East 545 627 31,000  Level FlightAware ADS-B (EPKK / KRK)
Fri 10:36:28 PM 42.2313 -70.4931 69° East 547 629 31,000  Level FlightAware ADS-B (EPKK / KRK)
Fri 10:37:01 PM 42.2611 -70.3881 69° East 546 628 31,000  Level FlightAware ADS-B (EPKK / KRK)
Fri 10:37:31 PM 42.2864 -70.2988 69° East 546 628 31,000  Level FlightAware ADS-B (EPKK / KRK)
Fri 10:38:02 PM 42.3155 -70.1941 69° East 545 627 31,000  Level FlightAware ADS-B (EPKK / KRK)
Fri 10:38:32 PM 42.3420 -70.0985 69° East 544 626 31,000  Level FlightAware ADS-B (EPKK / KRK)
Fri 10:39:12 PM 42.3767 -69.9747 69° East 543 625 31,000  Level FlightAware ADS-B (EPKK / KRK)
Fri 10:39:42 PM 42.4036 -69.8762 70° East 543 625 31,000  Level FlightAware ADS-B (EPKK / KRK)
Fri 10:40:33 PM 42.4471 -69.7175 70° East 542 624 31,000  Level FlightAware ADS-B (EPKK / KRK)
Fri 10:41:11 PM 42.4809 -69.5937 70° East 540 621 31,000  Level FlightAware ADS-B (EPKK / KRK)
Fri 10:41:41 PM 42.5066 -69.5016 69° East 540 621 31,000  Level FlightAware ADS-B (EPKK / KRK)
Fri 10:42:21 PM 42.5158 -69.4670 70° East 537 618 31,000  Level FlightAware ADS-B (EPKK / KRK)
Fri 10:42:55 PM 42.5690 -69.2670 70° East 537 618 31,000  Level FlightAware ADS-B
Fri 10:43:36 PM 42.6000 -69.1530 70° East 534 615 31,000  Level FlightAware ADS-B
Fri 10:44:12 PM 42.6280 -69.0490 70° East 535 616 31,000  Level FlightAware ADS-B
Fri 10:44:48 PM 42.6530 -68.9530 70° East 535 616 31,000  Level FlightAware ADS-B
Fri 10:45:24 PM 42.6790 -68.8560 70° East 535 616 31,000  Level FlightAware ADS-B
Fri 10:46:00 PM 42.7050 -68.7590 70° East 535 616 31,000  Level FlightAware ADS-B
Fri 10:46:36 PM 42.7310 -68.6620 70° East 535 616 31,000  Level FlightAware ADS-B
Fri 10:47:12 PM 42.7570 -68.5650 70° East 535 616 31,000  Level FlightAware ADS-B
Fri 10:47:48 PM 42.7830 -68.4680 70° East 535 616 31,000  Level FlightAware ADS-B
Fri 10:48:22 PM 42.8070 -68.3770 70° East 535 616 31,000  Level FlightAware ADS-B
Fri 10:48:58 PM 42.8330 -68.2800 70° East 535 616 31,000  Level FlightAware ADS-B
Fri 10:49:34 PM 42.8590 -68.1830 70° East 535 616 31,000  Level FlightAware ADS-B
Fri 10:49:39 PM 42.9117 -67.9588 72° East 545 627 31,000  Level FlightAware ADS-B
Fri 10:50:10 PM 42.8850 -68.0850 254° West 535 616 31,000  Level FlightAware ADS-B
Fri 10:50:46 PM 42.9110 -67.9880 70° East 535 616 31,000  Level FlightAware ADS-B
Fri 10:51:22 PM 42.9370 -67.8910 70° East 535 616 31,000  Level FlightAware ADS-B
Fri 10:51:28 PM 43.0009 -67.6032 73° East 541 623 31,000  Level FlightAware ADS-B
Fri 10:51:58 PM 42.9630 -67.7940 255° West 535 616 31,000  Level FlightAware ADS-B
Fri 10:52:34 PM 42.9890 -67.6970 70° East 535 616 31,000  Level FlightAware ADS-B
Fri 10:53:05 PM 43.0769 -67.2994 73° East 542 624 31,000  Level FlightAware ADS-B
Fri 10:53:45 PM 43.1096 -67.1660 71° East 544 626 31,000  Level FlightAware ADS-B
Fri 10:54:17 PM 43.1359 -67.0581 71° East 545 627 31,000  Level FlightAware ADS-B
Fri 10:54:51 PM 43.1639 -66.9433 71° East 547 629 31,000  Level FlightAware ADS-B
Fri 10:55:46 PM 43.2068 -66.7660 72° East 546 628 31,000  Level FlightAware ADS-B
Fri 10:56:16 PM 43.2307 -66.6673 72° East 545 627 31,000  Level FlightAware ADS-B
Fri 10:56:56 PM 43.2608 -66.5363 72° East 544 626 31,000  Level FlightAware ADS-B
Fri 10:57:27 PM 43.2857 -66.4348 71° East 544 626 31,000  Level FlightAware ADS-B
Fri 10:57:58 PM 43.3084 -66.3398 72° East 544 626 31,000  Level FlightAware ADS-B
Fri 10:58:37 PM 43.3340 -66.2280 72° East 542 624 31,000  Level FlightAware ADS-B
Fri 10:58:49 PM 43.3494 -66.1652 71° East 545 627 31,000  Level FlightAware ADS-B
Fri 10:59:28 PM 43.3795 -66.0338 72° East 543 625 31,000  Level FlightAware ADS-B
Fri 10:59:59 PM 43.4011 -65.9422 72° East 542 624 31,000  Level FlightAware ADS-B
Fri 11:00:29 PM 43.4257 -65.8339 73° East 541 623 31,000  Level FlightAware ADS-B
Fri 11:01:00 PM 43.4474 -65.7418 72° East 542 624 31,000  Level FlightAware ADS-B
Fri 11:01:31 PM 43.4725 -65.6302 73° East 543 625 31,000  Level FlightAware ADS-B
Fri 11:02:03 PM 43.4957 -65.5281 73° East 543 625 31,000  Level FlightAware ADS-B
Fri 11:02:36 PM 43.5203 -65.4192 73° East 543 625 31,000  Level FlightAware ADS-B
Fri 11:03:06 PM 43.5417 -65.3268 72° East 543 625 31,000  Level FlightAware ADS-B
Fri 11:03:36 PM 43.5632 -65.2311 73° East 544 626 31,000  Level FlightAware ADS-B
Fri 11:04:26 PM 43.6012 -65.0588 73° East 545 627 31,000  Level FlightAware ADS-B
Fri 11:04:57 PM 43.6248 -64.9525 73° East 544 626 31,000  Level FlightAware ADS-B
Fri 11:05:27 PM 43.6473 -64.8497 73° East 545 627 31,000  Level FlightAware ADS-B
Fri 11:05:57 PM 43.6691 -64.7531 73° East 546 628 31,000  Level FlightAware ADS-B
Fri 11:06:37 PM 43.6979 -64.6200 73° East 545 627 31,000  Level FlightAware ADS-B
Fri 11:07:09 PM 43.7182 -64.5265 73° East 545 627 31,000  Level FlightAware ADS-B
Fri 11:07:39 PM 43.7425 -64.4133 73° East 545 627 31,000  Level FlightAware ADS-B
Fri 11:08:11 PM 43.7654 -64.3066 73° East 546 628 31,000  Level FlightAware ADS-B
Fri 11:09:05 PM 43.8046 -64.1224 74° East 547 629 31,000  Level FlightAware ADS-B
Fri 11:09:35 PM 43.8257 -64.0252 73° East 548 631 31,000  Level FlightAware ADS-B
Fri 11:10:05 PM 43.8414 -63.9512 74° East 549 632 31,000  Level FlightAware ADS-B
Fri 11:10:35 PM 43.8681 -63.8229 74° East 549 632 31,000  Level FlightAware ADS-B
Fri 11:11:07 PM 43.8822 -63.7556 74° East 549 632 31,000  Level FlightAware ADS-B
Fri 11:11:41 PM 43.9142 -63.6004 74° East 549 632 31,000  Level FlightAware ADS-B
Fri 11:12:17 PM 43.9397 -63.4788 74° East 549 632 31,000  Level FlightAware ADS-B
Fri 11:13:06 PM 43.9731 -63.3132 74° East 548 631 31,000  Level FlightAware ADS-B
Fri 11:13:39 PM 43.9964 -63.2017 74° East 547 629 31,000  Level FlightAware ADS-B
Fri 11:14:19 PM 44.0238 -63.0632 75° East 547 629 31,000  Level FlightAware ADS-B
Fri 11:14:58 PM 44.0450 -62.9620 74° East 547 629 31,000  Level FlightAware ADS-B
Fri 11:15:15 PM 44.0472 -62.9482 78° East 547 629 31,000  Level FlightAware ADS-B
Fri 11:16:10 PM 44.0920 -62.7240 74° East 547 629 31,000  Level FlightAware ADS-B
Fri 11:16:16 PM 44.1022 -62.6705 75° East 547 629 31,000  Level FlightAware ADS-B
Fri 11:17:18 PM 44.1390 -62.4870 74° East 550 633 31,000  Level FlightAware ADS-B
Fri 11:17:53 PM 44.1620 -62.3640 75° East 551 634 31,000  Level FlightAware ADS-B
Fri 11:18:28 PM 44.1850 -62.2470 75° East 552 635 31,000  Level FlightAware ADS-B
Fri 11:19:03 PM 44.2050 -62.1470 74° East 552 635 31,000  Level FlightAware ADS-B
Fri 11:19:48 PM 44.2330 -61.9990 75° East 553 636 31,000  Level FlightAware ADS-B
Fri 11:20:33 PM 44.2660 -61.8230 75° East 553 636 31,000  Level FlightAware ADS-B
Fri 11:21:28 PM 44.3020 -61.6360 75° East 553 636 31,000  Level FlightAware ADS-B
Fri 11:22:04 PM 44.3220 -61.5310 75° East 553 636 31,000  Level FlightAware ADS-B
Fri 11:22:40 PM 44.3430 -61.4250 74° East 553 636 31,000  Level FlightAware ADS-B
Fri 11:23:17 PM 44.3630 -61.3160 76° East 553 636 31,000  Level FlightAware ADS-B
Fri 11:23:53 PM 44.3840 -61.2110 74° East 553 636 31,000  Level FlightAware ADS-B
Fri 11:24:29 PM 44.4040 -61.1050 75° East 553 636 31,000  Level FlightAware ADS-B
Fri 11:25:05 PM 44.4240 -60.9990 75° East 553 636 31,000  Level FlightAware ADS-B
Fri 11:25:41 PM 44.4440 -60.8930 75° East 553 636 31,000  Level FlightAware ADS-B
Fri 11:26:17 PM 44.4650 -60.7870 74° East 553 636 31,000  Level FlightAware ADS-B
Fri 11:26:53 PM 44.4850 -60.6810 75° East 553 636 31,000  Level FlightAware ADS-B
Fri 11:27:29 PM 44.5050 -60.5750 75° East 553 636 31,000  Level FlightAware ADS-B
Fri 11:28:05 PM 44.5250 -60.4690 75° East 553 636 31,000  Level FlightAware ADS-B
Fri 11:28:43 PM 44.5470 -60.3570 75° East 553 636 31,000  Level FlightAware ADS-B
Fri 11:29:21 PM 44.5960 -59.9950 79° East 552 635 31,000  Level FlightAware ADS-B
Fri 11:29:53 PM 44.6150 -59.8800 77° East 553 636 31,000  Level FlightAware ADS-B
Fri 11:30:29 PM 44.6370 -59.7540 76° East 554 638 31,000  Level FlightAware ADS-B
Fri 11:31:11 PM 44.6590 -59.6270 76° East 554 638 31,000  Level FlightAware ADS-B
Fri 11:31:43 PM 44.6790 -59.4990 78° East 553 636 31,000  Level FlightAware ADS-B
Fri 11:32:21 PM 44.7010 -59.3660 77° East 554 638 31,000  Level FlightAware ADS-B
Fri 11:32:57 PM 44.7230 -59.2360 77° East 554 638 31,000  Level FlightAware ADS-B
Fri 11:33:33 PM 44.7430 -59.1110 77° East 550 633 31,000  Level FlightAware ADS-B
Fri 11:34:05 PM 44.7610 -58.9990 77° East 547 629 31,000  Level FlightAware ADS-B
Fri 11:34:41 PM 44.7810 -58.8780 77° East 546 628 31,000  Level FlightAware ADS-B
Fri 11:35:19 PM 44.8020 -58.7470 77° East 544 626 31,000  Level FlightAware ADS-B
Fri 11:35:51 PM 44.8200 -58.6330 77° East 541 623 31,000  Level FlightAware ADS-B
Fri 11:36:27 PM 44.8390 -58.5090 78° East 540 621 31,000  Level FlightAware ADS-B
Fri 11:37:03 PM 44.8580 -58.3890 77° East 539 620 31,000  Level FlightAware ADS-B
Fri 11:37:39 PM 44.8770 -58.2660 78° East 537 618 31,000  Level FlightAware ADS-B
Fri 11:38:15 PM 44.8950 -58.1470 78° East 533 613 31,000  Level FlightAware ADS-B
Fri 11:38:40 PM 44.9080 -58.0650 77° East 530 610 31,000  Level FlightAware ADS-B
Fri 11:39:21 PM 44.9300 -57.9200 78° East 528 608 31,000  Level FlightAware ADS-B
Fri 11:40:01 PM 44.9470 -57.8060 78° East 528 608 31,000  Level FlightAware ADS-B
Fri 11:40:31 PM 44.9650 -57.6850 78° East 529 609 31,000  Level FlightAware ADS-B
Fri 11:41:03 PM 44.9810 -57.5770 78° East 529 609 31,000  Level FlightAware ADS-B
Fri 11:41:39 PM 44.9990 -57.4520 78° East 527 606 31,000  Level FlightAware ADS-B
Fri 11:42:17 PM 45.0180 -57.3240 78° East 523 602 31,000  Level FlightAware ADS-B
Fri 11:43:02 PM 45.0380 -57.1910 78° East 522 601 31,000  Level FlightAware ADS-B
Fri 11:43:55 PM 45.0630 -57.0150 79° East 518 596 31,000  Level FlightAware ADS-B
Fri 11:44:31 PM 45.0790 -56.9140 77° East 518 596 31,000  Level FlightAware ADS-B
Fri 11:45:07 PM 45.0940 -56.8120 78° East 518 596 31,000  Level FlightAware ADS-B
Fri 11:45:43 PM 45.1090 -56.7110 78° East 518 596 31,000  Level FlightAware ADS-B
Fri 11:46:17 PM 45.1230 -56.6150 78° East 518 596 31,000  Level FlightAware ADS-B
Fri 11:46:53 PM 45.1390 -56.5130 77° East 518 596 31,000  Level FlightAware ADS-B
Fri 11:47:29 PM 45.1540 -56.4110 78° East 518 596 31,000  Level FlightAware ADS-B
Fri 11:48:05 PM 45.1690 -56.3090 78° East 518 596 31,000  Level FlightAware ADS-B
Fri 11:48:41 PM 45.1840 -56.2080 78° East 518 596 31,000  Level FlightAware ADS-B
Fri 11:49:17 PM 45.2000 -56.1060 77° East 518 596 31,000  Level FlightAware ADS-B
Fri 11:49:53 PM 45.2150 -56.0040 78° East 518 596 31,000  Level FlightAware ADS-B
Fri 11:50:29 PM 45.2300 -55.9020 78° East 518 596 31,000  Level FlightAware ADS-B
Fri 11:51:06 PM 45.2460 -55.7980 78° East 518 596 31,000  Level FlightAware ADS-B
Fri 11:51:42 PM 45.2610 -55.6960 78° East 518 596 31,000  Level FlightAware ADS-B
Fri 11:52:18 PM 45.2760 -55.5940 78° East 518 596 31,000  Level FlightAware ADS-B
Fri 11:52:54 PM 45.2910 -55.4920 78° East 518 596 31,000 1,364 Level FlightAware ADS-B
Fri 11:53:46 PM 45.3500 -54.9833 78° East 530 610 33,000 313 Climbing Gander Center
Fri 11:59:17 PM 45.5150 -53.9690 78° East 526 605 33,000  Level FlightAware ADS-B
Fri 11:59:53 PM 45.5310 -53.8650 78° East 526 605 33,000  Level FlightAware ADS-B
Sat 12:00:30 AM 45.5470 -53.7590 78° East 526 605 33,000  Level FlightAware ADS-B
Sat 12:01:06 AM 45.5620 -53.6550 78° East 526 605 33,000  Level FlightAware ADS-B
Sat 12:01:42 AM 45.5780 -53.5510 78° East 526 605 33,000  Level FlightAware ADS-B
Sat 12:02:18 AM 45.5930 -53.4460 78° East 526 605 33,000  Level FlightAware ADS-B
Sat 12:02:55 AM 45.6090 -53.3390 78° East 526 605 33,000  Level FlightAware ADS-B
Sat 12:03:32 AM 45.6250 -53.2320 78° East 526 605 33,000  Level FlightAware ADS-B
Sat 12:04:09 AM 45.6410 -53.1250 78° East 526 605 33,000  Level FlightAware ADS-B
Sat 12:04:45 AM 45.6560 -53.0210 78° East 526 605 33,000  Level FlightAware ADS-B
Sat 12:05:22 AM 45.6720 -52.9140 78° East 526 605 33,000  Level FlightAware ADS-B
Sat 12:05:58 AM 45.6880 -52.8100 78° East 526 605 33,000  Level FlightAware ADS-B
Sat 12:06:34 AM 45.7030 -52.7050 78° East 526 605 33,000  Level FlightAware ADS-B
Sat 12:07:10 AM 45.7190 -52.6010 78° East 526 605 33,000  Level FlightAware ADS-B
Sat 12:07:46 AM 45.7333 -52.0833 78° East 550 633 33,000  Level Gander Center
Sat 12:08:16 AM 45.7500 -51.9667 78° East 540 621 33,000  Level Gander Center
Sat 12:08:47 AM 45.7667 -51.8667 77° East 540 621 33,000  Level Moncton Center
Sat 12:09:47 AM 45.8000 -51.6500 77° East 550 633 33,000  Level Moncton Center
Sat 12:10:47 AM 45.8000 -51.4333 90° East 550 633 33,000  Level Moncton Center
Sat 12:11:47 AM 45.8333 -51.2167 77° East 550 633 33,000  Level Moncton Center
Sat 12:12:47 AM 45.8667 -51.0167 76° East 550 633 33,000  Level Moncton Center
Sat 12:13:46 AM 45.8833 -50.7833 84° East 550 633 33,000  Level Gander Center
Sat 12:14:16 AM 45.9000 -50.6833 76° East 540 621 33,000  Level Gander Center
Sat 12:15:16 AM 45.9333 -50.4667 77° East 550 633 33,000  Level Gander Center
Sat 12:17:16 AM 45.9667 -50.0167 84° East 550 633 33,000  Level Gander Center
Sat 12:18:16 AM 46.0167 -49.8167 70° East 540 621 33,000  Level Gander Center
Sat 12:19:16 AM 46.0500 -49.6167 76° East 540 621 33,000  Level Gander Center
Sat 12:20:16 AM 46.1000 -49.4167 70° East 530 610 33,000  Level Gander Center
Sat 12:21:16 AM 46.1667 -49.2333 62° Northeast 550 633 33,000  Level Gander Center
Sat 12:22:16 AM 46.2000 -49.0000 78° East 540 621 33,000  Level Gander Center
Sat 12:23:16 AM 46.2500 -48.8167 68° East 540 621 33,000  Level Gander Center
Sat 12:24:16 AM 46.3167 -48.6167 64° Northeast 530 610 33,000  Level Gander Center
Sat 12:25:16 AM 46.3500 -48.4000 77° East 540 621 33,000  Level Gander Center
Sat 12:26:16 AM 46.4000 -48.2000 70° East 530 610 33,000  Level Gander Center
Sat 12:27:16 AM 46.4500 -47.9833 71° East 530 610 33,000  Level Gander Center
Sat 12:28:16 AM 46.5000 -47.8000 68° East 570 656 33,000  Level Gander Center
Sat 12:30:16 AM 46.5833 -47.3833 74° East 540 621 33,000  Level Gander Center
Sat 12:31:16 AM 46.6500 -47.1833 64° Northeast 530 610 33,000  Level Gander Center
Sat 12:32:16 AM 46.6833 -46.9667 77° East 540 621 33,000  Level Gander Center
Sat 12:33:16 AM 46.7500 -46.7833 62° Northeast 550 633 33,000 13 Level Gander Center
Sat 12:35:00 AM 46.8248 -46.4290 73° East  Level FlightAware Approximate
Sat 12:42:00 AM 47.1200 -44.9891 73° East  Level FlightAware Approximate
Sat 12:43:00 AM 47.1609 -44.7823 74° East  Level FlightAware Approximate
Sat 12:44:00 AM 47.2014 -44.5752 74° East  Level FlightAware Approximate
Sat 12:45:00 AM 47.2415 -44.3677 74° East  Level FlightAware Approximate
Sat 12:46:00 AM 47.2813 -44.1600 74° East  Level FlightAware Approximate
Sat 12:47:00 AM 47.3206 -43.9519 74° East  Level FlightAware Approximate
Sat 12:48:00 AM 47.3596 -43.7436 74° East  Level FlightAware Approximate
Sat 12:49:00 AM 47.3983 -43.5349 75° East  Level FlightAware Approximate
Sat 12:50:00 AM 47.4365 -43.3259 75° East  Level FlightAware Approximate
Sat 12:51:00 AM 47.4744 -43.1166 75° East  Level FlightAware Approximate
Sat 12:52:00 AM 47.5116 -42.9069 75° East  Level FlightAware Approximate
Sat 12:53:00 AM 47.5484 -42.6969 75° East  Level FlightAware Approximate
Sat 12:54:00 AM 47.5847 -42.4866 76° East  Level FlightAware Approximate
Sat 12:55:00 AM 47.6209 -42.2761 75° East  Level FlightAware Approximate
Sat 12:56:00 AM 47.6581 -42.0658 75° East  Level FlightAware Approximate
Sat 12:57:00 AM 47.6948 -41.8552 75° East  Level FlightAware Approximate
Sat 12:58:00 AM 47.7312 -41.6443 76° East  Level FlightAware Approximate
Sat 12:59:00 AM 47.7672 -41.4332 76° East  Level FlightAware Approximate
Sat 01:00:00 AM 47.8028 -41.2217 76° East  Level FlightAware Approximate
Sat 01:01:00 AM 47.8380 -41.0099 76° East  Level FlightAware Approximate
Sat 01:02:00 AM 47.8729 -40.7979 76° East  Level FlightAware Approximate
Sat 01:03:00 AM 47.9073 -40.5855 76° East  Level FlightAware Approximate
Sat 01:04:00 AM 47.9413 -40.3729 76° East  Level FlightAware Approximate
Sat 01:05:00 AM 47.9750 -40.1600 77° East  Level FlightAware Approximate
Sat 01:06:00 AM 48.0173 -39.9520 62° Northeast  Level FlightAware Approximate
Sat 01:07:00 AM 48.0870 -39.7574 62° Northeast  Level FlightAware Approximate
Sat 01:08:00 AM 48.1563 -39.5623 62° Northeast  Level FlightAware Approximate
Sat 01:09:00 AM 48.2253 -39.3667 62° Northeast  Level FlightAware Approximate
Sat 01:10:00 AM 48.2940 -39.1706 62° Northeast  Level FlightAware Approximate
Sat 01:11:00 AM 48.3624 -38.9739 62° Northeast  Level FlightAware Approximate
Sat 01:12:00 AM 48.4303 -38.7766 63° Northeast  Level FlightAware Approximate
Sat 01:13:00 AM 48.4974 -38.5784 63° Northeast  Level FlightAware Approximate
Sat 01:14:00 AM 48.5641 -38.3796 63° Northeast  Level FlightAware Approximate
Sat 01:15:00 AM 48.6305 -38.1804 63° Northeast  Level FlightAware Approximate
Sat 01:16:00 AM 48.6965 -37.9806 63° Northeast  Level FlightAware Approximate
Sat 01:17:00 AM 48.7622 -37.7803 63° Northeast  Level FlightAware Approximate
Sat 01:18:00 AM 48.8289 -37.5806 63° Northeast  Level FlightAware Approximate
Sat 01:19:00 AM 48.8954 -37.3803 63° Northeast  Level FlightAware Approximate
Sat 01:20:00 AM 48.9615 -37.1795 63° Northeast  Level FlightAware Approximate
Sat 01:21:00 AM 49.0273 -36.9782 63° Northeast  Level FlightAware Approximate
Sat 01:22:00 AM 49.0927 -36.7764 64° Northeast  Level FlightAware Approximate
Sat 01:23:00 AM 49.1577 -36.5740 64° Northeast  Level FlightAware Approximate
Sat 01:24:00 AM 49.2225 -36.3711 64° Northeast  Level FlightAware Approximate
Sat 01:25:00 AM 49.2868 -36.1677 64° Northeast  Level FlightAware Approximate
Sat 01:26:00 AM 49.3508 -35.9637 64° Northeast  Level FlightAware Approximate
Sat 01:27:00 AM 49.4144 -35.7593 64° Northeast  Level FlightAware Approximate
Sat 01:28:00 AM 49.4777 -35.5542 65° Northeast  Level FlightAware Approximate
Sat 01:29:00 AM 49.5406 -35.3487 65° Northeast  Level FlightAware Approximate
Sat 01:30:00 AM 49.6031 -35.1426 65° Northeast  Level FlightAware Approximate
Sat 01:31:00 AM 49.6653 -34.9360 65° Northeast  Level FlightAware Approximate
Sat 01:32:00 AM 49.7271 -34.7289 65° Northeast  Level FlightAware Approximate
Sat 01:33:00 AM 49.7886 -34.5213 65° Northeast  Level FlightAware Approximate
Sat 01:34:00 AM 49.8496 -34.3131 65° Northeast  Level FlightAware Approximate
Sat 01:35:00 AM 49.9103 -34.1044 66° East  Level FlightAware Approximate
Sat 01:36:00 AM 49.9706 -33.8951 66° East  Level FlightAware Approximate
Sat 01:37:00 AM 50.0306 -33.6854 66° East  Level FlightAware Approximate
Sat 01:38:00 AM 50.0901 -33.4751 66° East  Level FlightAware Approximate
Sat 01:39:00 AM 50.1493 -33.2643 66° East  Level FlightAware Approximate
Sat 01:40:00 AM 50.2081 -33.0530 66° East  Level FlightAware Approximate
Sat 01:41:00 AM 50.2665 -32.8411 67° East  Level FlightAware Approximate
Sat 01:42:00 AM 50.3246 -32.6288 67° East  Level FlightAware Approximate
Sat 01:43:00 AM 50.3822 -32.4159 67° East  Level FlightAware Approximate
Sat 01:44:00 AM 50.4395 -32.2025 67° East  Level FlightAware Approximate
Sat 01:45:00 AM 50.4963 -31.9886 67° East  Level FlightAware Approximate
Sat 01:46:00 AM 50.5528 -31.7742 67° East  Level FlightAware Approximate
Sat 01:47:00 AM 50.6089 -31.5593 68° East  Level FlightAware Approximate
Sat 01:48:00 AM 50.6645 -31.3438 68° East  Level FlightAware Approximate
Sat 01:49:00 AM 50.7198 -31.1279 68° East  Level FlightAware Approximate
Sat 01:50:00 AM 50.7747 -30.9114 68° East  Level FlightAware Approximate
Sat 01:51:00 AM 50.8292 -30.6945 68° East  Level FlightAware Approximate
Sat 01:52:00 AM 50.8833 -30.4770 68° East  Level FlightAware Approximate
Sat 01:53:00 AM 50.9369 -30.2590 69° East  Level FlightAware Approximate
Sat 01:54:00 AM 50.9902 -30.0405 69° East  Level FlightAware Approximate
Sat 01:55:00 AM 51.0431 -29.8216 69° East  Level FlightAware Approximate
Sat 01:56:00 AM 51.0957 -29.6022 69° East  Level FlightAware Approximate
Sat 01:57:00 AM 51.1478 -29.3823 69° East  Level FlightAware Approximate
Sat 01:58:00 AM 51.1995 -29.1619 69° East  Level FlightAware Approximate
Sat 01:59:00 AM 51.2509 -28.9410 70° East  Level FlightAware Approximate
Sat 02:00:00 AM 51.3026 -28.7201 69° East  Level FlightAware Approximate
Sat 02:01:00 AM 51.3553 -28.4995 69° East  Level FlightAware Approximate
Sat 02:02:00 AM 51.4076 -28.2785 69° East  Level FlightAware Approximate
Sat 02:03:00 AM 51.4594 -28.0569 69° East  Level FlightAware Approximate
Sat 02:04:00 AM 51.5109 -27.8348 70° East  Level FlightAware Approximate
Sat 02:05:00 AM 51.5619 -27.6122 70° East  Level FlightAware Approximate
Sat 02:06:00 AM 51.6125 -27.3892 70° East  Level FlightAware Approximate
Sat 02:07:00 AM 51.6627 -27.1656 70° East  Level FlightAware Approximate
Sat 02:08:00 AM 51.7125 -26.9416 70° East  Level FlightAware Approximate
Sat 02:09:00 AM 51.7618 -26.7170 70° East  Level FlightAware Approximate
Sat 02:10:00 AM 51.8107 -26.4920 71° East  Level FlightAware Approximate
Sat 02:11:00 AM 51.8592 -26.2665 71° East  Level FlightAware Approximate
Sat 02:12:00 AM 51.9073 -26.0404 71° East  Level FlightAware Approximate
Sat 02:13:00 AM 51.9549 -25.8139 71° East  Level FlightAware Approximate
Sat 02:14:00 AM 52.0021 -25.5870 71° East  Level FlightAware Approximate
Sat 02:15:00 AM 52.0488 -25.3595 71° East  Level FlightAware Approximate
Sat 02:16:00 AM 52.0951 -25.1316 72° East  Level FlightAware Approximate
Sat 02:17:00 AM 52.1410 -24.9032 72° East  Level FlightAware Approximate
Sat 02:18:00 AM 52.1864 -24.6744 72° East  Level FlightAware Approximate
Sat 02:19:00 AM 52.2313 -24.4450 72° East  Level FlightAware Approximate
Sat 02:20:00 AM 52.2759 -24.2152 72° East  Level FlightAware Approximate
Sat 02:21:00 AM 52.3200 -23.9850 73° East  Level FlightAware Approximate
Sat 02:22:00 AM 52.3636 -23.7543 73° East  Level FlightAware Approximate
Sat 02:23:00 AM 52.4068 -23.5231 73° East  Level FlightAware Approximate
Sat 02:24:00 AM 52.4495 -23.2915 73° East  Level FlightAware Approximate
Sat 02:25:00 AM 52.4918 -23.0595 73° East  Level FlightAware Approximate
Sat 02:26:00 AM 52.5336 -22.8270 73° East  Level FlightAware Approximate
Sat 02:27:00 AM 52.5750 -22.5940 74° East  Level FlightAware Approximate
Sat 02:28:00 AM 52.6159 -22.3606 74° East  Level FlightAware Approximate
Sat 02:29:00 AM 52.6563 -22.1268 74° East  Level FlightAware Approximate
Sat 02:30:00 AM 52.6963 -21.8926 74° East  Level FlightAware Approximate
Sat 02:31:00 AM 52.7358 -21.6583 74° East  Level FlightAware Approximate
Sat 02:32:00 AM 52.7748 -21.4236 75° East  Level FlightAware Approximate
Sat 02:33:00 AM 52.8133 -21.1885 75° East  Level FlightAware Approximate
Sat 02:34:00 AM 52.8514 -20.9530 75° East  Level FlightAware Approximate
Sat 02:35:00 AM 52.8890 -20.7171 75° East  Level FlightAware Approximate
Sat 02:36:00 AM 52.9261 -20.4807 75° East  Level FlightAware Approximate
Sat 02:37:00 AM 52.9628 -20.2440 75° East  Level FlightAware Approximate
Sat 02:38:00 AM 52.9990 -20.0069 76° East  Level FlightAware Approximate
Sat 02:39:00 AM 52.9992 -19.7624 90° East  Level FlightAware Approximate
Sat 02:40:00 AM 52.9979 -19.5176 90° East  Level FlightAware Approximate
Sat 02:41:00 AM 52.9961 -19.2729 91° East  Level FlightAware Approximate
Sat 02:42:00 AM 52.9938 -19.0282 91° East  Level FlightAware Approximate
Sat 02:43:00 AM 52.9910 -18.7836 91° East  Level FlightAware Approximate
Sat 02:44:00 AM 52.9877 -18.5389 91° East  Level FlightAware Approximate
Sat 02:45:00 AM 52.9838 -18.2944 91° East  Level FlightAware Approximate
Sat 02:46:00 AM 52.9795 -18.0498 92° East  Level FlightAware Approximate
Sat 02:47:00 AM 52.9747 -17.8053 92° East  Level FlightAware Approximate
Sat 02:48:00 AM 52.9694 -17.5609 92° East  Level FlightAware Approximate
Sat 02:49:00 AM 52.9636 -17.3165 92° East  Level FlightAware Approximate
Sat 02:50:00 AM 52.9572 -17.0722 92° East  Level FlightAware Approximate
Sat 02:51:00 AM 52.9504 -16.8280 93° East  Level FlightAware Approximate
Sat 02:52:00 AM 52.9431 -16.5843 93° East  Level FlightAware Approximate
Sat 02:53:00 AM 52.9353 -16.3407 93° East  Level FlightAware Approximate
Sat 02:54:00 AM 52.9270 -16.0971 93° East  Level FlightAware Approximate
Sat 02:55:00 AM 52.9182 -15.8537 93° East  Level FlightAware Approximate
Sat 02:56:00 AM 52.9089 -15.6103 94° East  Level FlightAware Approximate
Sat 02:57:00 AM 52.8991 -15.3671 94° East  Level FlightAware Approximate
Sat 02:58:00 AM 52.8888 -15.1240 94° East  Level FlightAware Approximate
Sat 02:59:00 AM 52.8784 -14.8809 94° East  Level FlightAware Approximate
Sat 03:00:00 AM 52.8681 -14.6379 94° East  Level FlightAware Approximate
Sat 03:01:00 AM 52.8572 -14.3950 94° East  Level FlightAware Approximate
Sat 03:01:42 AM 52.7920 -12.0240 94° East 532 612 35,000  Level FlightAware ADS-B
Sat 03:02:00 AM 52.8458 -14.1523 94° East  Level FlightAware Approximate
Sat 03:02:23 AM 52.7810 -11.8780 97° East 533 613 35,000  Level FlightAware ADS-B
Sat 03:02:59 AM 52.7740 -11.7540 95° East 533 613 35,000  Level FlightAware ADS-B
Sat 03:03:34 AM 52.7530 -11.5690 101° East 531 611 35,000  Level FlightAware ADS-B
Sat 03:04:04 AM 52.7430 -11.4480 98° East 531 611 35,000  Level FlightAware ADS-B
Sat 03:04:32 AM 52.7340 -11.3560 99° East 436 502 35,000  Level FlightAware ADS-B
Sat 03:05:05 AM 52.7220 -11.2190 98° East 532 612 35,000  Level FlightAware ADS-B
Sat 03:05:40 AM 52.7110 -11.0780 97° East 532 612 35,000  Level FlightAware ADS-B
Sat 03:06:20 AM 52.6940 -10.9070 99° East 532 612 35,000  Level FlightAware ADS-B
Sat 03:06:54 AM 52.6820 -10.7790 99° East 530 610 35,000  Level FlightAware ADS-B
Sat 03:07:25 AM 52.6690 -10.6480 99° East 528 608 35,000  Level FlightAware ADS-B
Sat 03:08:12 AM 52.6530 -10.4740 99° East 526 605 35,000  Level FlightAware ADS-B
Sat 03:08:47 AM 52.6380 -10.3250 99° East 523 602 35,000  Level FlightAware ADS-B
Sat 03:09:26 AM 52.6230 -10.1680 99° East 521 600 35,000  Level FlightAware ADS-B
Sat 03:10:03 AM 52.6100 -10.0390 99° East 520 598 35,000  Level FlightAware ADS-B
Sat 03:10:38 AM 52.5950 -9.8870 99° East 518 596 35,000  Level FlightAware ADS-B
Sat 03:11:20 AM 52.5830 -9.7710 100° East 518 596 35,000  Level FlightAware ADS-B
Sat 03:11:52 AM 52.5650 -9.6050 100° East 515 593 35,000  Level FlightAware ADS-B
Sat 03:12:29 AM 52.5500 -9.4580 99° East 515 593 35,000  Level FlightAware ADS-B
Sat 03:12:53 AM 52.5396 -9.3583 100° East 516 594 35,000  Level FlightAware ADS-B
Sat 03:13:27 AM 52.5306 -9.2738 100° East 516 594 35,000  Level FlightAware ADS-B
Sat 03:14:24 AM 52.5040 -9.0320 100° East 513 590 35,000  Level FlightAware ADS-B
Sat 03:15:02 AM 52.4854 -8.8614 100° East 494 568 35,000  Level FlightAware UK
Sat 03:15:08 AM 52.4860 -8.8670 100° East 515 593 35,000  Level FlightAware ADS-B
Sat 03:15:31 AM 52.4988 -8.9817 280° West 514 592 35,000  Level FlightAware ADS-B
Sat 03:16:04 AM 52.4589 -8.6251 100° East 515 593 35,000  Level FlightAware ADS-B
Sat 03:16:53 AM 52.4390 -8.4500 101° East 514 592 35,000  Level FlightAware ADS-B
Sat 03:17:28 AM 52.4230 -8.3120 101° East 513 590 35,000  Level FlightAware ADS-B
Sat 03:17:33 AM 52.4247 -8.3236 284° West 513 590 35,000  Level FlightAware ADS-B
Sat 03:18:27 AM 52.3961 -8.0802 101° East 512 589 35,000  Level FlightAware ADS-B
Sat 03:19:02 AM 52.3804 -7.9436 101° East 494 568 35,000  Level FlightAware UK
Sat 03:19:17 AM 52.3733 -7.8902 101° East 513 590 35,000  Level FlightAware ADS-B
Sat 03:19:48 AM 52.3600 -7.7800 101° East 513 590 35,000  Level FlightAware ADS-B
Sat 03:20:01 AM 52.3534 -7.7233 101° East 513 590 35,000  Level FlightAware ADS-B
Sat 03:20:31 AM 52.3394 -7.6097 101° East 512 589 35,000  Level FlightAware ADS-B
Sat 03:21:08 AM 52.3234 -7.4809 101° East 512 589 35,000  Level FlightAware ADS-B
Sat 03:21:38 AM 52.3080 -7.3524 101° East 494 568 35,000  Level FlightAware UK
Sat 03:22:04 AM 52.2960 -7.2620 101° East 511 588 35,000  Level FlightAware ADS-B
Sat 03:22:06 AM 52.2951 -7.2503 97° East 511 588 35,000  Level FlightAware ADS-B
Sat 03:22:08 AM 52.2939 -7.2391 101° East 494 568 35,000  Level FlightAware UK
Sat 03:22:39 AM 52.2795 -7.1250 97° East 494 568 35,000  Level FlightAware UK
Sat 03:22:42 AM 52.2780 -7.1180 97° East 511 588 35,000  Level FlightAware ADS-B
Sat 03:22:51 AM 52.2740 -7.0843 101° East 512 589 35,000  Level FlightAware ADS-B (EIDW / DUB)
Sat 03:23:22 AM 52.2586 -6.9641 102° East 510 587 35,000  Level FlightAware ADS-B (EIDW / DUB)
Sat 03:23:52 AM 52.2450 -6.8590 102° East 507 583 35,000  Level FlightAware ADS-B
Sat 03:24:07 AM 52.2370 -6.7951 102° East 508 585 35,000  Level FlightAware ADS-B (EIDW / DUB)
Sat 03:24:39 AM 52.2215 -6.6744 102° East 496 571 35,000  Level FlightAware UK
Sat 03:24:49 AM 52.2163 -6.6385 102° East 508 585 35,000  Level FlightAware ADS-B (EIDW / DUB)
Sat 03:25:23 AM 52.2000 -6.5157 102° East 506 582 35,000  Level FlightAware ADS-B
Sat 03:26:13 AM 52.1760 -6.3370 102° East 505 581 35,000  Level FlightAware ADS-B
Sat 03:26:45 AM 52.1599 -6.2064 102° East 494 568 35,000  Level FlightAware UK
Sat 03:26:45 AM 52.1610 -6.2110 102° East 503 579 35,000  Level FlightAware ADS-B
Sat 03:27:15 AM 52.1524 -6.0934 102° East 494 568 35,000  Level FlightAware UK
Sat 03:27:21 AM 52.1510 -6.0800 102° East 501 577 35,000  Level FlightAware ADS-B
Sat 03:27:58 AM 52.1400 -5.9340 97° East 500 575 35,000  Level FlightAware ADS-B
Sat 03:28:21 AM 52.1339 -5.8520 97° East 501 577 35,000  Level FlightAware ADS-B
Sat 03:29:03 AM 52.1224 -5.6899 97° East 490 564 35,000  Level FlightAware UK
Sat 03:29:14 AM 52.1200 -5.6580 97° East 501 577 35,000  Level FlightAware ADS-B
Sat 03:29:50 AM 52.1100 -5.5190 97° East 503 579 35,000  Level FlightAware ADS-B
Sat 03:30:22 AM 52.0960 -5.4040 101° East 508 585 35,000  Level FlightAware ADS-B
Sat 03:30:51 AM 52.0751 -5.2905 107° East 509 586 35,000  Level FlightAware ADS-B (EGCW)
Sat 03:31:28 AM 52.0589 -5.2024 107° East 510 587 35,000  Level FlightAware ADS-B (EGCW)
Sat 03:31:59 AM 52.0589 -5.2024 107° East 509 586 35,000  Level FlightAware ADS-B (EGCW)
Sat 03:32:33 AM 52.0078 -4.9210 106° East 508 585 35,000  Level FlightAware ADS-B
Sat 03:32:53 AM 51.9939 -4.8481 107° East 646 743 35,000  Level FlightAware ADS-B
Sat 03:33:34 AM 51.9956 -4.8553 292° West 507 583 35,000  Level FlightAware ADS-B
Sat 03:34:06 AM 51.9473 -4.5979 107° East 506 582 35,000  Level FlightAware ADS-B
Sat 03:34:38 AM 51.9224 -4.4675 107° East 506 582 35,000  Level FlightAware ADS-B
Sat 03:34:41 AM 51.9939 -4.8481 287° West 35,000  Level FlightAware ADS-B
Sat 03:34:49 AM 51.9165 -4.4349 107° East 505 581 35,000  Level FlightAware ADS-B
Sat 03:34:54 AM 51.9126 -4.4133 106° East 505 581 35,000  Level FlightAware ADS-B (EGCW)
Sat 03:35:25 AM 51.8899 -4.2945 107° East 505 581 35,000  Level FlightAware ADS-B (EGCW)
Sat 03:36:02 AM 51.8640 -4.1615 107° East 504 580 35,000  Level FlightAware ADS-B
Sat 03:36:41 AM 51.8371 -4.0253 108° East 504 580 35,000  Level FlightAware ADS-B
Sat 03:37:20 AM 51.8089 -3.8824 108° East 501 577 35,000  Level FlightAware ADS-B
Sat 03:37:50 AM 51.8005 -3.7798 97° East 495 570 35,000  Level FlightAware ADS-B (EGCW)
Sat 03:38:20 AM 51.7923 -3.6627 96° East 495 570 35,000  Level FlightAware ADS-B (EGCW)
Sat 03:38:50 AM 51.7831 -3.5531 98° East 494 568 35,000  Level FlightAware ADS-B (EGCW)
Sat 03:39:10 AM 51.7763 -3.4802 98° East 494 568 35,000  Level FlightAware ADS-B (EGCW)
Sat 03:39:40 AM 51.7662 -3.3746 99° East 494 568 35,000  Level FlightAware ADS-B (LERL / CQM)
Sat 03:40:10 AM 51.7551 -3.2620 99° East 494 568 35,000  Level FlightAware ADS-B (EGHH / BOH)
Sat 03:40:20 AM 51.7515 -3.2257 99° East 495 570 35,000  Level FlightAware ADS-B (EGDM)
Sat 03:40:51 AM 51.7417 -3.1127 98° East 494 568 35,000  Level FlightAware ADS-B (LERL / CQM)
Sat 03:41:22 AM 51.7322 -2.9993 98° East 494 568 35,000  Level FlightAware ADS-B (LERL / CQM)
Sat 03:41:53 AM 51.7245 -2.9083 98° East 495 570 35,000  Level FlightAware ADS-B
Sat 03:42:26 AM 51.7120 -2.7663 98° East 494 568 35,000  Level FlightAware ADS-B
Sat 03:42:49 AM 51.7044 -2.6825 98° East 492 566 35,000  Level FlightAware ADS-B (EGHH / BOH)
Sat 03:42:58 AM 51.7013 -2.6498 99° East 492 566 35,000  Level FlightAware ADS-B
Sat 03:43:31 AM 51.6902 -2.5304 99° East 493 567 35,000  Level FlightAware ADS-B
Sat 03:44:05 AM 51.6790 -2.4104 98° East 492 566 35,000  Level FlightAware ADS-B (EGHH / BOH)
Sat 03:44:28 AM 51.6718 -2.3309 98° East 493 567 35,000  Level FlightAware ADS-B (EGCW)
Sat 03:44:44 AM 51.6657 -2.2654 98° East 493 567 35,000  Level FlightAware ADS-B (EGDM)
Sat 03:45:14 AM 51.6554 -2.1569 99° East 492 566 35,000  Level FlightAware ADS-B (EGHH / BOH)
Sat 03:45:19 AM 51.6751 -2.3669 279° West 494 568 35,000  Level FlightAware ADS-B
Sat 03:45:39 AM 51.6468 -2.0660 99° East 493 567 35,000  Level FlightAware ADS-B
Sat 03:45:46 AM 51.6535 -2.1387 278° West 494 568 35,000  Level FlightAware ADS-B
Sat 03:45:54 AM 51.6415 -2.0118 99° East 494 568 35,000  Level FlightAware ADS-B
Sat 03:45:57 AM 51.6406 -2.0011 97° East 493 567 35,000  Level FlightAware ADS-B
Sat 03:46:12 AM 51.7069 -2.7117 279° West 494 568 35,000  Level FlightAware ADS-B (EGDX / DGX)
Sat 03:46:26 AM 51.6303 -1.8961 98° East 493 567 35,000  Level FlightAware ADS-B
Sat 03:46:43 AM 51.6246 -1.8382 99° East 493 567 35,000  Level FlightAware ADS-B
Sat 03:46:57 AM 51.6194 -1.7839 99° East 493 567 35,000  Level FlightAware ADS-B
Sat 03:47:27 AM 51.6086 -1.6759 99° East 492 566 35,000  Level FlightAware ADS-B
Sat 03:47:28 AM 51.6086 -1.6759 99° East 490 564 35,000  Level FlightAware ADS-B (EGHH / BOH)
Sat 03:47:45 AM 51.6066 -1.6540 98° East 490 564 35,000  Level FlightAware ADS-B
Sat 03:47:50 AM 51.6043 -1.6325 100° East 490 564 35,000  Level FlightAware ADS-B (EGDX / DGX)
Sat 03:47:59 AM 51.5973 -1.5607 99° East 490 564 35,000  Level FlightAware ADS-B
Sat 03:48:11 AM 51.5982 -1.5713 278° West 489 563 35,000  Level FlightAware ADS-B
Sat 03:48:29 AM 51.5863 -1.4532 99° East 488 562 35,000  Level FlightAware ADS-B
Sat 03:48:35 AM 51.5842 -1.4316 99° East 486 559 35,000  Level FlightAware ADS-B
Sat 03:48:44 AM 51.5811 -1.3998 99° East 486 559 35,000  Level FlightAware ADS-B
Sat 03:49:00 AM 51.5751 -1.3425 100° East 486 559 35,000  Level FlightAware ADS-B
Sat 03:49:01 AM 51.5749 -1.3391 95° East 485 558 35,000  Level FlightAware ADS-B (EGHH / BOH)
Sat 03:49:15 AM 51.5699 -1.2892 99° East 484 557 35,000  Level FlightAware ADS-B (LSXS)
Sat 03:49:24 AM 51.5665 -1.2576 100° East 484 557 35,000  Level FlightAware ADS-B (LSXS)
Sat 03:49:33 AM 51.5633 -1.2257 99° East 484 557 35,000  Level FlightAware ADS-B
Sat 03:49:57 AM 51.5546 -1.1440 100° East 484 557 35,000  Level FlightAware ADS-B
Sat 03:50:03 AM 51.5523 -1.1194 99° East 482 555 35,000  Level FlightAware ADS-B
Sat 03:50:28 AM 51.5432 -1.0314 99° East 482 555 35,000  Level FlightAware ADS-B
Sat 03:50:34 AM 51.5411 -1.0136 101° East 481 554 35,000  Level FlightAware ADS-B
Sat 03:50:46 AM 51.5982 -1.5713 280° West 491 565 35,000  Level FlightAware ADS-B
Sat 03:51:05 AM 51.5296 -0.9049 99° East 479 551 35,000  Level FlightAware ADS-B
Sat 03:51:16 AM 51.5284 -0.8946 101° East 479 551 35,000  Level FlightAware ADS-B
Sat 03:51:35 AM 51.5182 -0.7967 99° East 478 550 35,000  Level FlightAware ADS-B
Sat 03:51:47 AM 51.5136 -0.7549 100° East 477 549 35,000  Level FlightAware ADS-B (EGHH / BOH)
Sat 03:52:06 AM 51.5067 -0.6892 100° East 476 548 35,000  Level FlightAware ADS-B
Sat 03:52:17 AM 51.5026 -0.6543 101° East 476 548 35,000  Level FlightAware ADS-B
Sat 03:52:37 AM 51.4950 -0.5815 99° East 475 547 35,000  Level FlightAware ADS-B
Sat 03:52:47 AM 51.4918 -0.5538 100° East 475 547 35,000  Level FlightAware ADS-B
Sat 03:53:08 AM 51.4831 -0.4743 100° East 475 547 35,000  Level FlightAware ADS-B
Sat 03:53:17 AM 51.4801 -0.4466 100° East 475 547 35,000  Level FlightAware ADS-B (EGDM)
Sat 03:53:39 AM 51.4714 -0.3668 100° East 475 547 35,000  Level FlightAware ADS-B
Sat 03:53:54 AM 51.4654 -0.3147 101° East 476 548 35,000  Level FlightAware ADS-B
Sat 03:54:09 AM 51.4596 -0.2631 100° East 475 547 35,000  Level FlightAware ADS-B
Sat 03:54:28 AM 51.4521 -0.1971 100° East 475 547 35,000  Level FlightAware ADS-B (LSXS)
Sat 03:54:50 AM 51.4435 -0.1211 100° East 474 545 35,000  Level FlightAware ADS-B
Sat 03:54:59 AM 51.4405 -0.0935 100° East 474 545 35,000  Level FlightAware ADS-B (LSXS)
Sat 03:55:22 AM 51.4311 -0.0108 100° East 474 545 35,000  Level FlightAware ADS-B
Sat 03:55:30 AM 51.4281 0.0169 100° East 475 547 35,000  Level FlightAware ADS-B
Sat 03:55:53 AM 51.4192 0.0929 101° East 475 547 35,000  Level FlightAware ADS-B
Sat 03:56:00 AM 51.4164 0.1170 101° East 475 547 35,000  Level FlightAware ADS-B
Sat 03:56:06 AM 51.4164 0.1170 101° East 474 545 35,000  Level FlightAware ADS-B
Sat 03:56:15 AM 51.4103 0.1720 100° East 474 545 35,000  Level FlightAware ADS-B
Sat 03:56:23 AM 51.4070 0.1995 101° East 474 545 35,000  Level FlightAware ADS-B
Sat 03:56:39 AM 51.4007 0.2548 100° East 473 544 35,000  Level FlightAware ADS-B
Sat 03:56:44 AM 51.3987 0.2720 100° East 474 545 35,000  Level FlightAware ADS-B (EGHH / BOH)
Sat 03:57:15 AM 51.3883 0.3609 101° East 473 544 35,000  Level FlightAware ADS-B
Sat 03:57:27 AM 51.3815 0.4160 101° East 473 544 35,000  Level FlightAware ADS-B
Sat 03:57:34 AM 51.3785 0.4436 100° East 472 543 35,000  Level FlightAware ADS-B (LSXS)
Sat 03:57:41 AM 51.3815 0.4160 280° West 475 547 35,000  Level FlightAware ADS-B
Sat 03:58:11 AM 51.3634 0.5674 101° East 475 547 35,000  Level FlightAware ADS-B (EGHH / BOH)
Sat 03:58:29 AM 51.3559 0.6332 100° East 477 549 35,000  Level FlightAware ADS-B
Sat 03:58:36 AM 51.3582 0.6123 280° West 477 549 35,000  Level FlightAware ADS-B
Sat 03:59:07 AM 51.3401 0.7616 101° East 479 551 35,000  Level FlightAware ADS-B
Sat 03:59:08 AM 51.3397 0.7649 102° East 477 549 35,000  Level FlightAware ADS-B (LSXS)
Sat 03:59:26 AM 51.3319 0.8311 101° East 478 550 35,000  Level FlightAware ADS-B (EGHH / BOH)
Sat 03:59:50 AM 51.3260 0.8797 101° East 481 554 35,000  Level FlightAware ADS-B
Sat 03:59:55 AM 51.3195 0.9321 101° East 481 554 35,000  Level FlightAware ADS-B
Sat 04:00:42 AM 51.2994 1.0922 101° East 480 552 35,000  Level FlightAware ADS-B (LSXS)
Sat 04:00:45 AM 51.2977 1.1061 101° East 481 554 35,000  Level FlightAware ADS-B
Sat 04:01:06 AM 51.2890 1.1756 101° East 480 552 35,000  Level FlightAware ADS-B
Sat 04:01:15 AM 51.2850 1.2105 101° East 480 552 35,000  Level FlightAware ADS-B
Sat 04:01:47 AM 51.2712 1.3183 102° East 481 554 35,000  Level FlightAware ADS-B
Sat 04:02:18 AM 51.2575 1.4293 101° East 481 554 35,000  Level FlightAware ADS-B
Sat 04:02:22 AM 51.2555 1.4433 103° East 481 554 35,000  Level FlightAware ADS-B
Sat 04:02:52 AM 51.2426 1.5434 102° East 479 551 35,000  Level FlightAware ADS-B
Sat 04:03:26 AM 51.2274 1.6606 102° East 477 549 35,000  Level FlightAware ADS-B
Sat 04:03:57 AM 51.2118 1.7665 103° East 473 544 35,000  Level FlightAware ADS-B (LSXS)
Sat 04:04:36 AM 51.1797 1.8966 111° Southeast 475 547 35,000  Level FlightAware ADS-B
Sat 04:05:14 AM 51.1488 2.0164 112° Southeast 476 548 35,000  Level FlightAware ADS-B
Sat 04:05:50 AM 51.1176 2.1361 112° Southeast 478 550 35,000  Level FlightAware ADS-B
Sat 04:05:54 AM 51.1139 2.1490 114° Southeast 479 551 35,000  Level FlightAware ADS-B
Sat 04:06:21 AM 51.0875 2.2342 116° Southeast 480 552 35,000  Level FlightAware ADS-B
Sat 04:06:33 AM 51.0758 2.2722 116° Southeast 481 554 35,000  Level FlightAware ADS-B
Sat 04:07:02 AM 51.0479 2.3646 116° Southeast 481 554 35,000  Level FlightAware ADS-B
Sat 04:07:04 AM 51.0461 2.3708 115° Southeast 483 556 35,000  Level FlightAware ADS-B
Sat 04:07:41 AM 51.0120 2.4830 116° Southeast 483 556 35,000  Level FlightAware ADS-B
Sat 04:07:59 AM 50.9933 2.5433 116° Southeast 478 550 35,000  Level FlightAware ADS-B (LSXS)
Sat 04:08:31 AM 50.9616 2.6504 116° Southeast 496 571 35,000  Level FlightAware UK
Sat 04:08:57 AM 50.9370 2.7280 116° Southeast 484 557 35,000  Level FlightAware ADS-B
Sat 04:09:27 AM 50.9394 2.7218 302° West 486 559 35,000  Level FlightAware ADS-B
Sat 04:10:01 AM 50.8720 2.9370 302° West 498 573 35,000  Level FlightAware UK
Sat 04:10:03 AM 50.8710 2.9390 302° West 487 560 35,000  Level FlightAware ADS-B
Sat 04:10:39 AM 50.8360 3.0500 116° Southeast 487 560 35,000  Level FlightAware ADS-B
Sat 04:11:13 AM 50.7997 3.1677 116° Southeast 502 578 35,000  Level FlightAware UK
Sat 04:11:14 AM 50.8000 3.1650 116° Southeast 487 560 35,000  Level FlightAware ADS-B
Sat 04:11:35 AM 50.7800 3.2290 116° Southeast 487 560 35,000  Level FlightAware ADS-B
Sat 04:12:13 AM 50.7391 3.3585 116° Southeast 498 573 35,000  Level FlightAware UK
Sat 04:12:21 AM 50.7320 3.3810 116° Southeast 487 560 35,000  Level FlightAware ADS-B
Sat 04:12:55 AM 50.6970 3.4890 117° Southeast 486 559 35,000  Level FlightAware ADS-B
Sat 04:13:33 AM 50.6590 3.6060 117° Southeast 486 559 35,000  Level FlightAware ADS-B
Sat 04:14:05 AM 50.6260 3.7070 117° Southeast 487 560 35,000  Level FlightAware ADS-B
Sat 04:14:41 AM 50.5890 3.8200 117° Southeast 488 562 35,000  Level FlightAware ADS-B
Sat 04:15:13 AM 50.5554 3.9270 117° Southeast 496 571 35,000  Level FlightAware UK
Sat 04:15:16 AM 50.5540 3.9310 117° Southeast 489 563 35,000  Level FlightAware ADS-B
Sat 04:15:47 AM 50.5210 4.0290 118° Southeast 491 565 35,000  Level FlightAware ADS-B
Sat 04:16:24 AM 50.4840 4.1430 117° Southeast 491 565 35,000  Level FlightAware ADS-B
Sat 04:17:01 AM 50.4440 4.2630 118° Southeast 492 566 35,000  Level FlightAware ADS-B
Sat 04:17:37 AM 50.4060 4.3810 117° Southeast 491 565 35,000  Level FlightAware ADS-B
Sat 04:18:12 AM 50.3690 4.4910 118° Southeast 489 563 35,000  Level FlightAware ADS-B
Sat 04:18:45 AM 50.3390 4.5780 118° Southeast 487 560 35,000  Level FlightAware ADS-B
Sat 04:19:22 AM 50.2990 4.6960 118° Southeast 484 557 35,000  Level FlightAware ADS-B
Sat 04:19:58 AM 50.2610 4.8100 118° Southeast 482 555 35,000  Level FlightAware ADS-B
Sat 04:20:31 AM 50.2270 4.9110 118° Southeast 480 552 35,000  Level FlightAware ADS-B
Sat 04:21:14 AM 50.1800 5.0510 118° Southeast 475 547 35,000  Level FlightAware ADS-B
Sat 04:21:48 AM 50.1460 5.1500 118° Southeast 472 543 35,000  Level FlightAware ADS-B
Sat 04:22:19 AM 50.1140 5.2400 119° Southeast 469 540 35,000  Level FlightAware ADS-B
Sat 04:22:54 AM 50.0810 5.3380 118° Southeast 466 536 35,000  Level FlightAware ADS-B
Sat 04:23:35 AM 50.0360 5.4670 118° Southeast 462 532 35,000  Level FlightAware ADS-B
Sat 04:24:05 AM 50.0060 5.5540 118° Southeast 461 531 35,000  Level FlightAware ADS-B
Sat 04:24:44 AM 49.9670 5.6640 119° Southeast 458 527 35,000  Level FlightAware ADS-B
Sat 04:25:18 AM 49.9430 5.7360 117° Southeast 456 525 35,000  Level FlightAware ADS-B
Sat 04:25:51 AM 49.8990 5.8600 119° Southeast 452 520 35,000  Level FlightAware ADS-B
Sat 04:26:27 AM 49.8640 5.9600 118° Southeast 453 521 35,000  Level FlightAware ADS-B
Sat 04:27:01 AM 49.8290 6.0580 119° Southeast 453 521 35,000  Level FlightAware ADS-B
Sat 04:27:41 AM 49.7880 6.1720 119° Southeast 454 522 35,000  Level FlightAware ADS-B
Sat 04:28:11 AM 49.7560 6.2610 119° Southeast 454 522 35,000  Level FlightAware ADS-B
Sat 04:28:46 AM 49.7200 6.3580 120° Southeast 454 522 35,000  Level FlightAware ADS-B
Sat 04:29:26 AM 49.6740 6.4700 122° Southeast 452 520 35,000  Level FlightAware ADS-B
Sat 04:29:56 AM 49.6390 6.5510 124° Southeast 458 527 35,000  Level FlightAware ADS-B
Sat 04:30:32 AM 49.5960 6.6450 125° Southeast 452 520 35,000  Level FlightAware ADS-B
Sat 04:31:07 AM 49.5540 6.7380 125° Southeast 454 522 35,000  Level FlightAware ADS-B
Sat 04:31:42 AM 49.5100 6.8310 126° Southeast 456 525 35,000  Level FlightAware ADS-B
Sat 04:32:21 AM 49.4640 6.9330 125° Southeast 457 526 35,000  Level FlightAware ADS-B
Sat 04:33:01 AM 49.4190 7.0320 125° Southeast 457 526 35,000  Level FlightAware ADS-B
Sat 04:33:36 AM 49.3710 7.1340 126° Southeast 457 526 35,000  Level FlightAware ADS-B
Sat 04:34:16 AM 49.3220 7.2440 124° Southeast 458 527 35,000  Level FlightAware ADS-B
Sat 04:34:51 AM 49.2820 7.3290 126° Southeast 458 527 35,000  Level FlightAware ADS-B
Sat 04:35:26 AM 49.2340 7.4310 126° Southeast 460 529 35,000  Level FlightAware ADS-B
Sat 04:36:01 AM 49.1910 7.5240 125° Southeast 460 529 35,000  Level FlightAware ADS-B
Sat 04:36:36 AM 49.1470 7.6210 125° Southeast 465 535 35,000  Level FlightAware ADS-B
Sat 04:37:12 AM 49.1070 7.7030 127° Southeast 466 536 35,000  Level FlightAware ADS-B
Sat 04:37:46 AM 49.0590 7.8050 126° Southeast 467 537 35,000  Level FlightAware ADS-B
Sat 04:38:22 AM 49.0130 7.9040 125° Southeast 467 537 35,000  Level FlightAware ADS-B
Sat 04:38:54 AM 48.9730 7.9890 126° Southeast 468 539 35,000  Level FlightAware ADS-B
Sat 04:39:40 AM 48.9140 8.1120 126° Southeast 469 540 35,000  Level FlightAware ADS-B
Sat 04:40:14 AM 48.8700 8.2030 126° Southeast 469 540 35,000  Level FlightAware ADS-B
Sat 04:40:49 AM 48.8260 8.2960 126° Southeast 470 541 35,000  Level FlightAware ADS-B
Sat 04:41:26 AM 48.7800 8.3920 126° Southeast 471 542 35,000  Level FlightAware ADS-B
Sat 04:41:59 AM 48.7380 8.4800 126° Southeast 471 542 35,000  Level FlightAware ADS-B
Sat 04:42:34 AM 48.6940 8.5700 127° Southeast 472 543 35,000  Level FlightAware ADS-B
Sat 04:43:09 AM 48.6460 8.6690 126° Southeast 472 543 35,000  Level FlightAware ADS-B
Sat 04:43:45 AM 48.6000 8.7640 126° Southeast 473 544 35,000  Level FlightAware ADS-B
Sat 04:44:22 AM 48.5520 8.8600 127° Southeast 474 545 35,000  Level FlightAware ADS-B
Sat 04:44:59 AM 48.5020 8.9610 127° Southeast 474 545 35,000  Level FlightAware ADS-B
Sat 04:45:38 AM 48.4540 9.0590 126° Southeast 474 545 35,000  Level FlightAware ADS-B
Sat 04:46:13 AM 48.4050 9.1570 127° Southeast 474 545 35,000  Level FlightAware ADS-B
Sat 04:46:43 AM 48.3680 9.2340 126° Southeast 474 545 35,000  Level FlightAware ADS-B
Sat 04:47:22 AM 48.3150 9.3420 126° Southeast 474 545 35,000  Level FlightAware ADS-B
Sat 04:47:57 AM 48.2720 9.4260 128° Southeast 473 544 35,000  Level FlightAware ADS-B
Sat 04:48:33 AM 48.2150 9.5130 134° Southeast 471 542 35,000  Level FlightAware ADS-B
Sat 04:49:04 AM 48.1590 9.5790 142° Southeast 469 540 35,000  Level FlightAware ADS-B
Sat 04:49:41 AM 48.0940 9.6480 145° Southeast 468 539 35,000  Level FlightAware ADS-B
Sat 04:50:17 AM 48.0350 9.7090 145° Southeast 469 540 35,000  Level FlightAware ADS-B
Sat 04:50:53 AM 47.9670 9.7800 145° Southeast 469 540 35,000  Level FlightAware ADS-B
Sat 04:51:23 AM 47.9170 9.8330 145° Southeast 469 540 35,000  Level FlightAware ADS-B
Sat 04:52:03 AM 47.8430 9.9090 145° Southeast 470 541 35,000  Level FlightAware ADS-B
Sat 04:52:35 AM 47.7860 9.9660 146° Southeast 471 542 35,000  Level FlightAware ADS-B
Sat 04:53:12 AM 47.7190 10.0370 145° Southeast 472 543 35,000  Level FlightAware ADS-B
Sat 04:53:47 AM 47.6570 10.1010 145° Southeast 473 544 35,000  Level FlightAware ADS-B
Sat 04:54:22 AM 47.5970 10.1620 146° Southeast 475 547 35,000  Level FlightAware ADS-B
Sat 04:54:56 AM 47.5320 10.2290 145° Southeast 476 548 35,000  Level FlightAware ADS-B
Sat 04:55:31 AM 47.4680 10.2940 146° Southeast 478 550 35,000  Level FlightAware ADS-B
Sat 04:56:05 AM 47.4060 10.3570 145° Southeast 480 552 35,000  Level FlightAware ADS-B
Sat 04:56:42 AM 47.3360 10.4280 145° Southeast 485 558 35,000  Level FlightAware ADS-B
Sat 04:57:17 AM 47.2700 10.4890 148° Southeast 484 557 35,000  Level FlightAware ADS-B
Sat 04:57:51 AM 47.2040 10.5390 153° Southeast 486 559 35,000  Level FlightAware ADS-B
Sat 04:58:26 AM 47.1350 10.5920 152° Southeast 488 562 35,000  Level FlightAware ADS-B
Sat 04:58:56 AM 47.0730 10.6420 151° Southeast 491 565 35,000  Level FlightAware ADS-B
Sat 04:59:39 AM 47.0000 10.7000 152° Southeast 493 567 35,000  Level FlightAware ADS-B
Sat 05:00:10 AM 46.9300 10.7560 151° Southeast 492 566 35,000  Level FlightAware ADS-B
Sat 05:00:45 AM 46.8610 10.8130 151° Southeast 494 568 35,000  Level FlightAware ADS-B
Sat 05:01:18 AM 46.7950 10.8660 151° Southeast 497 572 35,000  Level FlightAware ADS-B
Sat 05:01:53 AM 46.7320 10.9380 142° Southeast 505 581 35,000  Level FlightAware ADS-B
Sat 05:02:28 AM 46.6770 11.0200 134° Southeast 504 580 35,000  Level FlightAware ADS-B
Sat 05:03:02 AM 46.6180 11.1030 136° Southeast 503 579 35,000  Level FlightAware ADS-B
Sat 05:03:43 AM 46.5530 11.2080 132° Southeast 506 582 35,000  Level FlightAware ADS-B
Sat 05:04:24 AM 46.4900 11.3140 131° Southeast 505 581 35,000  Level FlightAware ADS-B
Sat 05:04:58 AM 46.4370 11.4030 131° Southeast 503 579 35,000  Level FlightAware ADS-B
Sat 05:05:31 AM 46.3900 11.4830 130° Southeast 499 574 35,000  Level FlightAware ADS-B
Sat 05:06:08 AM 46.3350 11.5770 130° Southeast 497 572 35,000  Level FlightAware ADS-B
Sat 05:06:44 AM 46.2770 11.6750 131° Southeast 494 568 35,000  Level FlightAware ADS-B
Sat 05:07:19 AM 46.2260 11.7600 131° Southeast 492 566 35,000  Level FlightAware ADS-B
Sat 05:07:53 AM 46.1730 11.8490 131° Southeast 489 563 35,000  Level FlightAware ADS-B
Sat 05:08:26 AM 46.1250 11.9310 130° Southeast 488 562 35,000  Level FlightAware ADS-B
Sat 05:08:59 AM 46.0780 12.0070 132° Southeast 489 563 35,000  Level FlightAware ADS-B
Sat 05:09:47 AM 46.0080 12.1250 130° Southeast 490 564 35,000  Level FlightAware ADS-B
Sat 05:10:17 AM 45.9610 12.2010 132° Southeast 491 565 35,000  Level FlightAware ADS-B
Sat 05:10:56 AM 45.9070 12.2900 131° Southeast 493 567 35,000  Level FlightAware ADS-B
Sat 05:11:32 AM 45.8510 12.3840 131° Southeast 493 567 35,000  Level FlightAware ADS-B
Sat 05:12:23 AM 45.7740 12.5140 130° Southeast 496 571 35,000  Level FlightAware ADS-B
Sat 05:13:02 AM 45.7230 12.6160 126° Southeast 500 575 35,000  Level FlightAware ADS-B
Sat 05:13:33 AM 45.6850 12.6910 126° Southeast 500 575 35,000  Level FlightAware ADS-B
Sat 05:14:10 AM 45.6320 12.7950 126° Southeast 491 565 35,000  Level FlightAware ADS-B
Sat 05:14:45 AM 45.5840 12.8890 126° Southeast 489 563 35,000  Level FlightAware ADS-B
Sat 05:15:19 AM 45.5360 12.9800 127° Southeast 488 562 35,000  Level FlightAware ADS-B
Sat 05:15:55 AM 45.4880 13.0700 127° Southeast 491 565 35,000  Level FlightAware ADS-B
Sat 05:16:29 AM 45.4420 13.1590 126° Southeast 492 566 35,000  Level FlightAware ADS-B
Sat 05:17:08 AM 45.3940 13.2510 127° Southeast 494 568 35,000  Level FlightAware ADS-B
Sat 05:17:48 AM 45.3330 13.3690 126° Southeast 500 575 35,000  Level FlightAware ADS-B
Sat 05:18:20 AM 45.2970 13.4380 127° Southeast 497 572 35,000  Level FlightAware ADS-B
Sat 05:18:54 AM 45.2460 13.5360 126° Southeast 498 573 35,000  Level FlightAware ADS-B
Sat 05:19:34 AM 45.1880 13.6470 127° Southeast 499 574 35,000  Level FlightAware ADS-B
Sat 05:20:05 AM 45.1440 13.7290 127° Southeast 499 574 35,000  Level FlightAware ADS-B
Sat 05:20:40 AM 45.0970 13.8190 126° Southeast 497 572 35,000  Level FlightAware ADS-B
Sat 05:21:23 AM 45.0380 13.9320 126° Southeast 501 577 35,000  Level FlightAware ADS-B
Sat 05:22:00 AM 44.9890 14.0240 127° Southeast 498 573 35,000  Level FlightAware ADS-B
Sat 05:22:39 AM 44.9300 14.1340 127° Southeast 505 581 35,000  Level FlightAware ADS-B
Sat 05:23:15 AM 44.8800 14.2290 127° Southeast 507 583 35,000  Level FlightAware ADS-B
Sat 05:23:54 AM 44.8240 14.3320 127° Southeast 509 586 35,000  Level FlightAware ADS-B
Sat 05:24:24 AM 44.7800 14.4140 127° Southeast 509 586 35,000  Level FlightAware ADS-B
Sat 05:25:00 AM 44.7350 14.4980 127° Southeast 510 587 35,000  Level FlightAware ADS-B
Sat 05:25:35 AM 44.6810 14.5990 127° Southeast 511 588 35,000  Level FlightAware ADS-B
Sat 05:26:22 AM 44.6140 14.7230 127° Southeast 509 586 35,000  Level FlightAware ADS-B
Sat 05:27:18 AM 44.5400 14.8610 127° Southeast 511 588 35,000  Level FlightAware ADS-B
Sat 05:27:54 AM 44.4780 14.9680 129° Southeast 517 595 35,000  Level FlightAware ADS-B
Sat 05:28:30 AM 44.4270 15.0620 127° Southeast 523 602 35,000  Level FlightAware ADS-B
Sat 05:29:00 AM 44.3870 15.1350 127° Southeast 526 605 35,000  Level FlightAware ADS-B
Sat 05:29:54 AM 44.3010 15.2900 128° Southeast 527 606 35,000  Level FlightAware ADS-B
Sat 05:30:30 AM 44.2460 15.3870 128° Southeast 527 606 35,000  Level FlightAware ADS-B
Sat 05:31:05 AM 44.1940 15.4840 127° Southeast 529 609 35,000  Level FlightAware ADS-B
Sat 05:31:45 AM 44.1400 15.5790 128° Southeast 530 610 35,000  Level FlightAware ADS-B
Sat 05:32:25 AM 44.0720 15.6990 128° Southeast 528 608 35,000  Level FlightAware ADS-B
Sat 05:32:56 AM 44.0270 15.7800 128° Southeast 529 609 35,000  Level FlightAware ADS-B
Sat 05:33:30 AM 43.9730 15.8750 128° Southeast 528 608 35,000  Level FlightAware ADS-B
Sat 05:34:08 AM 43.9140 15.9770 129° Southeast 534 615 35,000  Level FlightAware ADS-B
Sat 05:34:45 AM 43.8590 16.0740 128° Southeast 534 615 35,000  Level FlightAware ADS-B
Sat 05:35:21 AM 43.8060 16.1670 128° Southeast 530 610 35,000  Level FlightAware ADS-B
Sat 05:35:55 AM 43.7540 16.2590 128° Southeast 530 610 35,000  Level FlightAware ADS-B
Sat 05:36:36 AM 43.6880 16.3740 128° Southeast 536 617 35,000  Level FlightAware ADS-B
Sat 05:37:17 AM 43.6280 16.4780 129° Southeast 537 618 35,000  Level FlightAware ADS-B
Sat 05:37:51 AM 43.5740 16.5720 128° Southeast 537 618 35,000  Level FlightAware ADS-B
Sat 05:38:25 AM 43.5200 16.6630 129° Southeast 539 620 35,000  Level FlightAware ADS-B
Sat 05:39:06 AM 43.4550 16.7750 129° Southeast 539 620 35,000  Level FlightAware ADS-B
Sat 05:39:44 AM 43.3960 16.8750 129° Southeast 542 624 35,000 417 Level FlightAware ADS-B
Sat 05:40:18 AM 43.3420 16.9690 128° Southeast 545 627 35,500 1,059 Climbing FlightAware ADS-B
Sat 05:40:52 AM 43.2880 17.0600 129° Southeast 547 629 36,200 1,167 Climbing FlightAware ADS-B
Sat 05:41:30 AM 43.2280 17.1600 129° Southeast 548 631 36,900 686 Climbing FlightAware ADS-B
Sat 05:42:02 AM 43.1750 17.2490 129° Southeast 552 635 37,000 88 Climbing FlightAware ADS-B
Sat 05:42:38 AM 43.1190 17.3440 129° Southeast 553 636 37,000  Level FlightAware ADS-B
Sat 05:43:14 AM 43.0590 17.4450 129° Southeast 554 638 37,000  Level FlightAware ADS-B
Sat 05:43:50 AM 42.9990 17.5450 129° Southeast 555 639 37,000  Level FlightAware ADS-B
Sat 05:44:24 AM 42.9440 17.6370 129° Southeast 556 640 37,000  Level FlightAware ADS-B
Sat 05:45:00 AM 42.8850 17.7350 129° Southeast 556 640 37,000  Level FlightAware ADS-B
Sat 05:45:34 AM 42.8300 17.8240 130° Southeast 557 641 37,000  Level FlightAware ADS-B
Sat 05:46:08 AM 42.7770 17.9130 129° Southeast 558 642 37,000  Level FlightAware ADS-B
Sat 05:46:41 AM 42.7160 18.0050 132° Southeast 559 643 37,000  Level FlightAware ADS-B
Sat 05:47:37 AM 42.6230 18.1330 135° Southeast 560 644 37,000  Level FlightAware ADS-B
Sat 05:48:16 AM 42.5460 18.2370 135° Southeast 561 646 37,000  Level FlightAware ADS-B
Sat 05:48:51 AM 42.4810 18.3240 135° Southeast 562 647 37,000  Level FlightAware ADS-B
Sat 05:49:41 AM 42.3930 18.4420 135° Southeast 562 647 37,000  Level FlightAware ADS-B
Sat 05:50:13 AM 42.3260 18.5310 136° Southeast 562 647 37,000  Level FlightAware ADS-B
Sat 05:50:47 AM 42.2640 18.6150 135° Southeast 561 646 37,000  Level FlightAware ADS-B
Sat 05:51:23 AM 42.1980 18.7010 136° Southeast 560 644 37,000  Level FlightAware ADS-B
Sat 05:51:57 AM 42.1350 18.7840 136° Southeast 557 641 37,000  Level FlightAware ADS-B
Sat 05:52:31 AM 42.0740 18.8660 135° Southeast 556 640 37,000  Level FlightAware ADS-B
Sat 05:53:09 AM 42.0030 18.9580 136° Southeast 555 639 37,000  Level FlightAware ADS-B
Sat 05:53:56 AM 41.9790 18.9900 135° Southeast 555 639 37,000  Level FlightAware ADS-B
Sat 05:54:33 AM 41.8470 19.1630 136° Southeast 555 639 37,000  Level FlightAware ADS-B
Sat 05:55:13 AM 41.7760 19.2540 136° Southeast 556 640 37,000  Level FlightAware ADS-B
Sat 05:55:49 AM 41.7080 19.3460 135° Southeast 557 641 37,000  Level FlightAware ADS-B
Sat 05:56:26 AM 41.6400 19.4330 136° Southeast 558 642 37,000  Level FlightAware ADS-B
Sat 05:56:59 AM 41.5800 19.5120 135° Southeast 558 642 37,000  Level FlightAware ADS-B
Sat 05:57:42 AM 41.4990 19.6190 135° Southeast 559 643 37,000  Level FlightAware ADS-B
Sat 05:58:19 AM 41.4320 19.7050 136° Southeast 560 644 37,000  Level FlightAware ADS-B
Sat 05:58:49 AM 41.3770 19.7770 135° Southeast 559 643 37,000  Level FlightAware ADS-B
Sat 05:59:25 AM 41.3090 19.8640 136° Southeast 560 644 37,000  Level FlightAware ADS-B
Sat 05:59:59 AM 41.2450 19.9450 136° Southeast 560 644 37,000  Level FlightAware ADS-B
Sat 06:00:35 AM 41.1770 20.0330 136° Southeast 561 646 37,000  Level FlightAware ADS-B
Sat 06:01:13 AM 41.1060 20.1250 136° Southeast 562 647 37,000  Level FlightAware ADS-B
Sat 06:01:47 AM 41.0420 20.2060 136° Southeast 562 647 37,000  Level FlightAware ADS-B
Sat 06:02:24 AM 40.9750 20.2890 137° Southeast 562 647 37,000  Level FlightAware ADS-B
Sat 06:03:11 AM 40.8870 20.4030 136° Southeast 560 644 37,000  Level FlightAware ADS-B
Sat 06:03:47 AM 40.8180 20.4880 137° Southeast 559 643 37,000  Level FlightAware ADS-B
Sat 06:04:19 AM 40.7610 20.5610 136° Southeast 557 641 37,000  Level FlightAware ADS-B
Sat 06:04:55 AM 40.6940 20.6450 136° Southeast 556 640 37,000  Level FlightAware ADS-B
Sat 06:05:33 AM 40.6220 20.7370 136° Southeast 556 640 37,000  Level FlightAware ADS-B
Sat 06:06:03 AM 40.5640 20.8090 137° Southeast 556 640 37,000  Level FlightAware ADS-B
Sat 06:06:41 AM 40.4940 20.8950 137° Southeast 556 640 37,000  Level FlightAware ADS-B
Sat 06:07:17 AM 40.4260 20.9790 137° Southeast 558 642 37,000  Level FlightAware ADS-B
Sat 06:07:53 AM 40.3590 21.0620 137° Southeast 559 643 37,000  Level FlightAware ADS-B
Sat 06:08:25 AM 40.2990 21.1370 136° Southeast 560 644 37,000  Level FlightAware ADS-B
Sat 06:09:01 AM 40.2300 21.2220 137° Southeast 560 644 37,000  Level FlightAware ADS-B
Sat 06:09:37 AM 40.1650 21.3100 134° Southeast 557 641 37,000  Level FlightAware ADS-B
Sat 06:10:09 AM 40.1110 21.3880 132° Southeast 557 641 37,000  Level FlightAware ADS-B
Sat 06:10:45 AM 40.0480 21.4810 131° Southeast 558 642 37,000  Level FlightAware ADS-B
Sat 06:11:01 AM 40.0220 21.5180 133° Southeast 558 642 37,000  Level FlightAware ADS-B
Sat 06:11:47 AM 39.9420 21.6340 132° Southeast 558 642 37,000  Level FlightAware ADS-B
Sat 06:12:24 AM 39.8810 21.7240 131° Southeast 558 642 37,000  Level FlightAware ADS-B
Sat 06:12:59 AM 39.8170 21.8170 132° Southeast 558 642 37,000  Level FlightAware ADS-B
Sat 06:13:31 AM 39.7620 21.8970 132° Southeast 558 642 37,000  Level FlightAware ADS-B
Sat 06:14:07 AM 39.7010 21.9850 132° Southeast 558 642 37,000  Level FlightAware ADS-B
Sat 06:14:43 AM 39.6390 22.0750 132° Southeast 558 642 37,000  Level FlightAware ADS-B
Sat 06:15:19 AM 39.5770 22.1640 132° Southeast 559 643 37,000  Level FlightAware ADS-B
Sat 06:15:51 AM 39.5200 22.2460 132° Southeast 559 643 37,000  Level FlightAware ADS-B
Sat 06:16:27 AM 39.4580 22.3360 132° Southeast 560 644 37,000  Level FlightAware ADS-B
Sat 06:17:04 AM 39.3950 22.4250 132° Southeast 560 644 37,000  Level FlightAware ADS-B
Sat 06:17:31 AM 39.3470 22.4920 133° Southeast 560 644 37,000  Level FlightAware ADS-B
Sat 06:18:07 AM 39.2850 22.5840 131° Southeast 560 644 37,000  Level FlightAware ADS-B
Sat 06:18:43 AM 39.2230 22.6710 133° Southeast 562 647 37,000  Level FlightAware ADS-B
Sat 06:19:17 AM 39.1630 22.7550 133° Southeast 564 649 37,000  Level FlightAware ADS-B
Sat 06:19:48 AM 39.1110 22.8300 132° Southeast 564 649 37,000  Level FlightAware ADS-B
Sat 06:20:27 AM 39.0390 22.9290 133° Southeast 565 650 37,000  Level FlightAware ADS-B
Sat 06:21:02 AM 38.9780 23.0160 132° Southeast 566 651 37,000  Level FlightAware ADS-B
Sat 06:21:39 AM 38.9120 23.1080 133° Southeast 566 651 37,000  Level FlightAware ADS-B
Sat 06:22:10 AM 38.8560 23.1880 132° Southeast 568 654 37,000  Level FlightAware ADS-B
Sat 06:22:48 AM 38.7890 23.2790 133° Southeast 569 655 37,000  Level FlightAware ADS-B
Sat 06:23:20 AM 38.7310 23.3610 132° Southeast 571 657 37,000  Level FlightAware ADS-B
Sat 06:23:57 AM 38.6650 23.4530 133° Southeast 571 657 37,000  Level FlightAware ADS-B
Sat 06:24:32 AM 38.6020 23.5400 133° Southeast 573 659 37,000  Level FlightAware ADS-B
Sat 06:25:09 AM 38.5360 23.6320 133° Southeast 573 659 37,000  Level FlightAware ADS-B
Sat 06:25:41 AM 38.4790 23.7090 133° Southeast 573 659 37,000  Level FlightAware ADS-B
Sat 06:26:18 AM 38.4110 23.8010 133° Southeast 573 659 37,000  Level FlightAware ADS-B
Sat 06:26:50 AM 38.3520 23.8820 133° Southeast 574 661 37,000  Level FlightAware ADS-B
Sat 06:27:27 AM 38.2870 23.9710 133° Southeast 575 662 37,000  Level FlightAware ADS-B
Sat 06:28:04 AM 38.2180 24.0650 133° Southeast 575 662 37,000  Level FlightAware ADS-B
Sat 06:28:39 AM 38.1540 24.1520 133° Southeast 577 664 37,000  Level FlightAware ADS-B
Sat 06:29:11 AM 38.0970 24.2280 134° Southeast 578 665 37,000  Level FlightAware ADS-B
Sat 06:29:48 AM 38.0280 24.3220 133° Southeast 578 665 37,000  Level FlightAware ADS-B
Sat 06:30:22 AM 37.9660 24.4060 133° Southeast 579 666 37,000  Level FlightAware ADS-B
Sat 06:30:58 AM 37.9000 24.4950 133° Southeast 579 666 37,000  Level FlightAware ADS-B
Sat 06:31:34 AM 37.8330 24.5840 134° Southeast 578 665 37,000  Level FlightAware ADS-B
Sat 06:32:09 AM 37.7680 24.6700 134° Southeast 579 666 37,000  Level FlightAware ADS-B
Sat 06:32:42 AM 37.7080 24.7500 133° Southeast 579 666 37,000  Level FlightAware ADS-B
Sat 06:33:18 AM 37.6410 24.8390 134° Southeast 579 666 37,000  Level FlightAware ADS-B
Sat 06:33:50 AM 37.5820 24.9170 134° Southeast 578 665 37,000  Level FlightAware ADS-B
Sat 06:34:27 AM 37.5140 25.0070 134° Southeast 578 665 37,000  Level FlightAware ADS-B
Sat 06:35:04 AM 37.4450 25.0970 134° Southeast 577 664 37,000  Level FlightAware ADS-B
Sat 06:35:39 AM 37.3810 25.1800 134° Southeast 578 665 37,000  Level FlightAware ADS-B
Sat 06:36:11 AM 37.3220 25.2570 134° Southeast 577 664 37,000  Level FlightAware ADS-B
Sat 06:36:48 AM 37.2520 25.3490 134° Southeast 576 663 37,000  Level FlightAware ADS-B
Sat 06:37:19 AM 37.1960 25.4210 134° Southeast 576 663 37,000  Level FlightAware ADS-B
Sat 06:37:58 AM 37.1250 25.5150 133° Southeast 575 662 37,000  Level FlightAware ADS-B
Sat 06:38:34 AM 37.0570 25.6030 134° Southeast 574 661 37,000  Level FlightAware ADS-B
Sat 06:39:09 AM 36.9930 25.6840 135° Southeast 572 658 37,000  Level FlightAware ADS-B
Sat 06:39:42 AM 36.9330 25.7620 134° Southeast 571 657 37,000  Level FlightAware ADS-B
Sat 06:40:17 AM 36.8680 25.8450 134° Southeast 570 656 37,000  Level FlightAware ADS-B
Sat 06:40:48 AM 36.8090 25.9210 134° Southeast 569 655 37,000  Level FlightAware ADS-B
Sat 06:41:28 AM 36.7460 26.0030 134° Southeast 569 655 37,000  Level FlightAware ADS-B
Sat 06:42:10 AM 36.6600 26.1110 135° Southeast 565 650 37,000  Level FlightAware ADS-B
Sat 06:42:46 AM 36.5950 26.1970 133° Southeast 564 649 37,000  Level FlightAware ADS-B
Sat 06:43:19 AM 36.5420 26.2790 129° Southeast 561 646 37,000  Level FlightAware ADS-B
Sat 06:43:55 AM 36.4930 26.3760 122° Southeast 560 644 37,000  Level FlightAware ADS-B
Sat 06:44:25 AM 36.4520 26.4590 122° Southeast 559 643 37,000  Level FlightAware ADS-B
Sat 06:45:05 AM 36.3960 26.5710 122° Southeast 559 643 37,000  Level FlightAware ADS-B
Sat 06:45:54 AM 36.3290 26.7040 122° Southeast 560 644 37,000  Level FlightAware ADS-B
Sat 06:46:40 AM 36.2760 26.8100 122° Southeast 560 644 37,000  Level FlightAware ADS-B
Sat 06:47:16 AM 36.2350 26.8950 121° Southeast 560 644 37,000  Level FlightAware ADS-B
Sat 06:47:53 AM 36.1930 26.9810 121° Southeast 560 644 37,000  Level FlightAware ADS-B
Sat 06:48:22 AM 36.1340 27.0890 124° Southeast 555 639 37,000  Level FlightAware ADS-B
Sat 06:49:17 AM 36.0570 27.2380 123° Southeast 556 640 37,000  Level FlightAware ADS-B
Sat 06:49:46 AM 36.1240 27.1080 303° West 559 643 37,000  Level FlightAware ADS-B
Sat 06:50:26 AM 35.9540 27.4380 122° Southeast 559 643 37,000  Level FlightAware ADS-B
Sat 06:51:02 AM 35.9040 27.5350 122° Southeast 559 643 37,000  Level FlightAware ADS-B
Sat 06:51:38 AM 35.8530 27.6340 122° Southeast 559 643 37,000  Level FlightAware ADS-B
Sat 06:52:14 AM 35.8030 27.7310 122° Southeast 559 643 37,000  Level FlightAware ADS-B
Sat 06:52:46 AM 35.7580 27.8170 123° Southeast 560 644 37,000  Level FlightAware ADS-B
Sat 06:53:22 AM 35.7080 27.9100 123° Southeast 560 644 37,000  Level FlightAware ADS-B
Sat 06:53:56 AM 35.6590 28.0040 123° Southeast 561 646 37,000  Level FlightAware ADS-B
Sat 06:54:33 AM 35.6090 28.1010 122° Southeast 560 644 37,000  Level FlightAware ADS-B
Sat 06:55:05 AM 35.5640 28.1860 123° Southeast 562 647 37,000  Level FlightAware ADS-B
Sat 06:55:47 AM 35.5130 28.2860 122° Southeast 562 647 37,000  Level FlightAware ADS-B
Sat 06:56:19 AM 35.4600 28.3850 123° Southeast 563 648 37,000  Level FlightAware ADS-B
Sat 06:56:59 AM 35.4130 28.4770 122° Southeast 563 648 37,000  Level FlightAware ADS-B
Sat 06:57:35 AM 35.3580 28.5770 124° Southeast 563 648 37,000  Level FlightAware ADS-B
Sat 06:58:17 AM 35.2910 28.7000 124° Southeast 564 649 37,000  Level FlightAware ADS-B
Sat 06:58:49 AM 35.2450 28.7860 123° Southeast 564 649 37,000  Level FlightAware ADS-B
Sat 06:59:27 AM 35.1900 28.8870 124° Southeast 564 649 37,000  Level FlightAware ADS-B
Sat 07:00:03 AM 35.1380 28.9860 123° Southeast 566 651 37,000  Level FlightAware ADS-B
Sat 07:00:35 AM 35.0920 29.0690 124° Southeast 568 654 37,000  Level FlightAware ADS-B
Sat 07:01:29 AM 35.0200 29.2050 123° Southeast 566 651 37,000  Level FlightAware ADS-B
Sat 07:02:05 AM 34.9770 29.2870 123° Southeast 566 651 37,000  Level FlightAware ADS-B
Sat 07:02:40 AM 34.9130 29.4010 124° Southeast 553 636 37,000  Level FlightAware ADS-B
Sat 07:03:31 AM 34.8500 29.5180 123° Southeast 551 634 37,000  Level FlightAware ADS-B
Sat 07:04:08 AM 34.8060 29.6000 123° Southeast 551 634 37,000  Level FlightAware ADS-B
Sat 07:04:44 AM 34.7640 29.6790 123° Southeast 551 634 37,000  Level FlightAware ADS-B
Sat 07:05:21 AM 34.7200 29.7610 123° Southeast 551 634 37,000  Level FlightAware ADS-B
Sat 07:05:57 AM 34.6770 29.8410 123° Southeast 551 634 37,000  Level FlightAware ADS-B
Sat 07:06:33 AM 34.6350 29.9200 123° Southeast 551 634 37,000  Level FlightAware ADS-B
Sat 07:07:09 AM 34.5920 30.0000 123° Southeast 551 634 37,000  Level FlightAware ADS-B
Sat 07:07:46 AM 34.5490 30.0810 123° Southeast 551 634 37,000  Level FlightAware ADS-B
Sat 07:08:22 AM 34.5060 30.1610 123° Southeast 551 634 37,000  Level FlightAware ADS-B
Sat 07:09:02 AM 34.3940 30.4030 119° Southeast 561 646 37,000  Level FlightAware ADS-B
Sat 07:09:47 AM 34.3420 30.5130 120° Southeast 561 646 37,000  Level FlightAware ADS-B
Sat 07:10:23 AM 34.2870 30.6240 121° Southeast 559 643 37,000  Level FlightAware ADS-B
Sat 07:11:03 AM 34.2400 30.7190 121° Southeast 557 641 37,000  Level FlightAware ADS-B
Sat 07:11:38 AM 34.1910 30.8180 121° Southeast 554 638 37,000  Level FlightAware ADS-B
Sat 07:12:34 AM 34.1250 30.9580 120° Southeast 552 635 37,000  Level FlightAware ADS-B
Sat 07:13:12 AM 34.0660 31.0760 121° Southeast 546 628 37,000  Level FlightAware ADS-B
Sat 07:13:58 AM 34.0060 31.1950 121° Southeast 545 627 37,000  Level FlightAware ADS-B
Sat 07:14:37 AM 33.9550 31.3000 120° Southeast 543 625 37,000  Level FlightAware ADS-B
Sat 07:15:09 AM 33.9200 31.3730 120° Southeast 542 624 37,000  Level FlightAware ADS-B
Sat 07:15:42 AM 33.8740 31.4640 121° Southeast 545 627 37,000  Level FlightAware ADS-B
Sat 07:16:23 AM 33.8200 31.5730 121° Southeast 540 621 37,000  Level FlightAware ADS-B
Sat 07:16:53 AM 33.7810 31.6510 121° Southeast 539 620 37,000  Level FlightAware ADS-B
Sat 07:17:28 AM 33.7350 31.7450 120° Southeast 539 620 37,000  Level FlightAware ADS-B
Sat 07:18:04 AM 33.6880 31.8380 121° Southeast 539 620 37,000  Level FlightAware ADS-B
Sat 07:18:44 AM 33.6560 31.8990 122° Southeast 544 626 37,000  Level FlightAware ADS-B
Sat 07:19:30 AM 33.5790 32.0540 121° Southeast 537 618 37,000  Level FlightAware ADS-B
Sat 07:20:11 AM 33.5360 32.1390 121° Southeast 537 618 37,000  Level FlightAware ADS-B
Sat 07:20:45 AM 33.4840 32.2410 121° Southeast 541 623 37,000  Level FlightAware ADS-B
Sat 07:21:34 AM 33.4160 32.3770 121° Southeast 540 621 37,000  Level FlightAware ADS-B
Sat 07:22:17 AM 33.3630 32.4790 122° Southeast 534 615 37,000  Level FlightAware ADS-B
Sat 07:22:51 AM 33.3150 32.5730 121° Southeast 533 613 37,000  Level FlightAware ADS-B
Sat 07:23:30 AM 33.2690 32.6610 122° Southeast 535 616 37,000  Level FlightAware ADS-B
Sat 07:24:15 AM 33.2100 32.7770 121° Southeast 535 616 37,000  Level FlightAware ADS-B
Sat 07:24:56 AM 33.1640 32.8680 121° Southeast 535 616 37,000 -2,261 Level FlightAware ADS-B
Sat 07:25:24 AM 33.1180 32.9580 121° Southeast 535 616 34,400 -4,286 Descending FlightAware ADS-B
Sat 07:25:59 AM 33.0730 33.0410 123° Southeast 542 624 32,500 -2,582 Descending FlightAware ADS-B
Sat 07:26:43 AM 33.0150 33.1560 121° Southeast 815 938 31,000 -2,100 Descending FlightAware ADS-B
Sat 07:27:19 AM 32.9730 33.2360 122° Southeast 520 598 29,700 -1,054 Descending FlightAware ADS-B
Sat 07:27:57 AM 32.9330 33.3150 121° Southeast 520 598 29,700 -2,914 Level FlightAware ADS-B
Sat 07:28:29 AM 32.8820 33.4100 123° Southeast 500 575 26,300 -4,500 Descending FlightAware ADS-B
Sat 07:29:05 AM 32.8380 33.4940 122° Southeast 492 566 24,600 -3,083 Descending FlightAware ADS-B
Sat 07:29:41 AM 32.7940 33.5760 123° Southeast 489 563 22,600 -3,441 Descending FlightAware ADS-B
Sat 07:30:13 AM 32.7560 33.6490 122° Southeast 488 562 20,700 -3,176 Descending FlightAware ADS-B
Sat 07:30:49 AM 32.7150 33.7280 122° Southeast 478 550 19,000 -2,676 Descending FlightAware ADS-B
Sat 07:31:27 AM 32.6690 33.8150 122° Southeast 460 529 17,400 -2,486 Descending FlightAware ADS-B
Sat 07:31:59 AM 32.6330 33.8820 123° Southeast 449 517 16,100 -2,382 Descending FlightAware ADS-B
Sat 07:32:35 AM 32.5950 33.9520 123° Southeast 435 501 14,700 -2,294 Descending FlightAware ADS-B
Sat 07:33:07 AM 32.5600 34.0200 121° Southeast 425 489 13,500 -2,229 Descending FlightAware ADS-B
Sat 07:33:45 AM 32.5210 34.0920 123° Southeast 412 474 12,100 -2,175 Descending FlightAware ADS-B
Sat 07:34:27 AM 32.4760 34.1700 124° Southeast 393 452 10,600 -1,692 Descending FlightAware ADS-B
Sat 07:35:03 AM 32.4320 34.2240 134° Southeast 369 425 9,900 -1,607 Descending FlightAware ADS-B
Sat 07:35:23 AM 32.4080 34.2520 135° Southeast 365 420 9,100 -1,950 Descending FlightAware ADS-B
Sat 07:35:43 AM 32.3850 34.2780 136° Southeast 361 415 8,600 -1,636 Descending FlightAware ADS-B
Sat 07:36:07 AM 32.3560 34.3130 134° Southeast 354 407 7,900 -1,650 Descending FlightAware ADS-B
Sat 07:36:23 AM 32.3370 34.3350 136° Southeast 350 403 7,500 -585 Descending FlightAware ADS-B
Sat 07:36:48 AM 32.3140 34.3640 133° Southeast 350 403 7,500 -497 Level FlightAware ADS-B
Sat 07:39:00 AM 32.1086 34.6580 125° Southeast  Level FlightAware Approximate
Sat 07:40:00 AM 32.0354 34.8077 125° Southeast  Level FlightAware Approximate
Sat 07:41:00 AM 32.0000 34.8667 125° Southeast  Level FlightAware Approximate
Sat 07:42:00 AM 32.0095 34.8769 125° Southeast  Level Estimated
Sat 07:43:00 AM 32.0095 34.8769 125° Southeast  Level Estimated
Sat 07:44:00 AM 32.0095 34.8769 125° Southeast  Level Estimated
Sat 07:45:00 AM 32.0095 34.8769 125° Southeast  Level Estimated
Sat 07:45:14 AM 31.9730 34.9030 125° Southeast 192 221 3,100  Level FlightAware ADS-B
Sat 07:45:58 AM 31.9810 34.9410 76° East 189 217 2,800 -409 Descending FlightAware ADS-B
Sat 07:48:00 AM 32.0095 34.8769 298° West  Level Estimated
Sat 07:49:00 AM 32.0095 34.8769 270° West  Level Estimated

Login

Don't have an account? Register now (free) for customized features, flight alerts, and more!